Data for 02/28/2007

Time Sea-Level Adjusted Pressure Absolute Pressure Temperature Relative Humidity Dew Point Precipitation   
(mb) (inHg) (mb) (inHg) (C) (F) (%) (C) (F) (mm) (in)
00:01 1007 29.74 837 24.72 -8.5 16.6 88 -10.2 13.6 0
00:02 1007 29.74 837 24.72 -8.5 16.7 87 -10.3 13.5 0
00:03 1007 29.74 837 24.72 -8.5 16.6 86 -10.4 13.2 0
00:04 1007 29.74 837 24.72 -8.6 16.6 86 -10.5 13.1 0
00:05 1007 29.74 837 24.72 -8.7 16.4 86 -10.6 12.9 0
00:06 1007 29.74 837 24.72 -8.8 16.2 86 -10.7 12.8 0
00:07 1007 29.74 837 24.72 -8.9 16 87 -10.7 12.8 0
00:08 1007 29.74 837 24.72 -8.9 16 87 -10.6 12.9 0
00:09 1007 29.74 837 24.72 -8.9 16.1 87 -10.7 12.8 0
00:10 1007 29.74 837 24.72 -8.8 16.1 87 -10.6 12.9 0
00:11 1007 29.74 837 24.72 -8.8 16.2 87 -10.5 13 0
00:12 1007 29.74 837 24.72 -8.8 16.2 87 -10.6 13 0
00:13 1007 29.74 837 24.72 -8.7 16.4 88 -10.3 13.5 0
00:14 1007 29.74 837 24.72 -8.6 16.6 87 -10.4 13.3 0
00:15 1007 29.74 837 24.72 -8.5 16.6 86 -10.4 13.3 0
00:16 1007 29.74 837 24.72 -8.5 16.8 87 -10.3 13.5 0
00:17 1007 29.74 837 24.72 -8.4 16.8 86 -10.4 13.3 0
00:18 1007 29.74 837 24.72 -8.5 16.8 86 -10.4 13.3 0
00:19 1007 29.74 837 24.72 -8.4 16.8 86 -10.3 13.4 0
00:20 1007 29.74 837 24.72 -8.5 16.8 88 -10.1 13.8 0
00:21 1007 29.74 837 24.72 -8.3 17.1 88 -9.9 14.1 0
00:22 1007 29.74 837 24.72 -8.1 17.4 87 -10 14.1 0
00:23 1007 29.74 837 24.72 -8 17.6 84 -10.2 13.6 0
00:24 1007 29.74 837 24.72 -8.1 17.4 84 -10.4 13.3 0
00:25 1007 29.74 837 24.72 -8.4 16.9 85 -10.5 13.1 0
00:26 1007 29.74 837 24.72 -8.6 16.6 83 -10.9 12.3 0
00:27 1007 29.74 837 24.72 -8.9 16 84 -11.2 11.9 0
00:28 1007 29.74 837 24.72 -9.2 15.4 85 -11.3 11.7 0
00:29 1007 29.74 837 24.72 -9.4 15.1 87 -11.2 11.8 0
00:30 1007 29.74 837 24.72 -9.6 14.8 86 -11.4 11.4 0
00:31 1007 29.74 837 24.72 -9.7 14.5 87 -11.5 11.2 0
00:32 1007 29.74 837 24.72 -9.9 14.3 89 -11.4 11.5 0
00:33 1007 29.74 837 24.72 -9.8 14.3 91 -11 12.1 0
00:34 1007 29.74 837 24.72 -9.7 14.6 91 -10.9 12.4 0
00:35 1007 29.74 837 24.72 -9.5 14.9 90 -10.8 12.5 0
00:36 1007 29.74 837 24.72 -9.5 14.9 88 -11.1 12 0
00:37 1007 29.74 837 24.72 -9.6 14.7 87 -11.3 11.6 0
00:38 1007 29.74 837 24.72 -9.8 14.4 87 -11.6 11.1 0
00:39 1007 29.74 837 24.72 -10 14 88 -11.7 11 0
00:40 1008 29.77 837 24.72 -10.1 13.8 89 -11.6 11.1 0
00:41 1008 29.77 837 24.72 -10.1 13.7 90 -11.5 11.4 0
00:42 1008 29.77 837 24.72 -10.1 13.8 90 -11.5 11.4 0
00:43 1008 29.77 837 24.72 -10.1 13.9 88 -11.7 10.9 0
00:44 1008 29.77 837 24.72 -10.2 13.6 88 -11.8 10.7 0
00:45 1007 29.74 837 24.72 -10.3 13.5 89 -11.7 10.9 0
00:46 1007 29.74 837 24.72 -10.3 13.6 92 -11.4 11.5 0
00:47 1007 29.74 837 24.72 -10.1 13.9 92 -11.2 11.9 0
00:48 1007 29.74 837 24.72 -10.1 13.9 87 -11.8 10.8 0
00:49 1007 29.74 837 24.72 -10.3 13.4 88 -11.9 10.5 0
00:50 1007 29.74 837 24.72 -10.4 13.3 90 -11.7 10.9 0
00:51 1007 29.74 837 24.72 -10.6 12.9 86 -12.5 9.5 0
00:52 1007 29.74 837 24.72 -10.9 12.4 87 -12.7 9.1 0
00:53 1008 29.77 837 24.72 -11.3 11.7 83 -13.7 7.3 0
00:54 1008 29.77 837 24.72 -11.8 10.7 87 -13.6 7.5 0
00:55 1008 29.77 837 24.72 -11.9 10.6 91 -13 8.5 0
00:56 1008 29.77 837 24.72 -11.6 11.2 95 -12.2 10.1 0
00:57 1008 29.77 837 24.72 -10.7 12.7 98 -10.9 12.3 0
00:58 1008 29.77 837 24.72 -9.9 14.3 98 -10.2 13.7 0
00:59 1008 29.77 837 24.72 -9.3 15.3 94 -10 14 0
01:00 1008 29.77 837 24.72 -8.9 15.9 91 -10.1 13.8 0
01:01 1008 29.77 837 24.72 -8.7 16.3 91 -9.9 14.1 0
01:02 1008 29.77 837 24.72 -8.6 16.5 79 -11.7 11 0
01:03 1008 29.77 837 24.72 -9.5 15 86 -11.4 11.5 0
01:04 1008 29.77 837 24.72 -10 14 80 -12.9 8.8 0
01:05 1008 29.77 837 24.72 -10.6 12.9 83 -13 8.7 0
01:06 1008 29.77 837 24.72 -10.6 13 94 -11.3 11.6 0
01:07 1008 29.77 837 24.72 -10 13.9 92 -11 12.1 0
01:08 1008 29.77 837 24.72 -9.8 14.4 85 -11.9 10.6 0
01:09 1008 29.77 837 24.72 -10.3 13.6 86 -12.2 10.1 0
01:10 1008 29.77 837 24.72 -10.3 13.5 89 -11.7 10.9 0
01:11 1008 29.77 837 24.72 -10.2 13.7 88 -11.8 10.8 0
01:12 1008 29.77 837 24.72 -10.5 13.2 85 -12.5 9.5 0
01:13 1008 29.77 837 24.72 -10.7 12.7 80 -13.6 7.6 0
01:14 1008 29.77 837 24.72 -11.1 12 75 -14.6 5.7 0
01:15 1008 29.77 837 24.72 -11.7 11 88 -13.3 8 0
01:16 1008 29.77 837 24.72 -11.7 10.9 79 -14.7 5.5 0
01:17 1008 29.77 837 24.72 -12.5 9.5 81 -15.1 4.8 0
01:18 1008 29.77 837 24.72 -13.1 8.5 83 -15.4 4.3 0
01:19 1008 29.77 837 24.72 -13.4 8 88 -14.9 5.2 0
01:20 1008 29.77 837 24.72 -13.6 7.5 85 -15.7 3.8 0
01:21 1008 29.77 837 24.72 -13.7 7.4 91 -14.8 5.3 0
01:22 1008 29.77 837 24.72 -13.7 7.4 89 -15.1 4.8 0
01:23 1008 29.77 837 24.72 -13.8 7.2 85 -15.8 3.6 0
01:24 1008 29.77 837 24.72 -14.2 6.4 84 -16.4 2.5 0
01:25 1008 29.77 837 24.72 -14.5 5.9 88 -16.1 3.1 0
01:26 1008 29.77 837 24.72 -14.2 6.5 96 -14.6 5.7 0
01:27 1008 29.77 837 24.72 -13.3 8 98 -13.6 7.5 0
01:28 1008 29.77 837 24.72 -12.8 9 98 -13 8.6 0
01:29 1008 29.77 837 24.72 -12.1 10.2 98 -12.4 9.7 0
01:30 1008 29.77 837 24.72 -11.7 10.9 89 -13.2 8.3 0
01:31 1008 29.77 837 24.72 -12.2 10.1 81 -14.8 5.4 0
01:32 1008 29.77 837 24.72 -12.7 9.2 89 -14.1 6.6 0
01:33 1008 29.77 837 24.72 -12.6 9.3 87 -14.3 6.2 0
01:34 1008 29.77 837 24.72 -13 8.7 80 -15.7 3.7 0
01:35 1008 29.77 837 24.72 -13.7 7.4 78 -16.7 2 0
01:36 1008 29.77 837 24.72 -14.4 6.1 80 -17.1 1.2 0
01:37 1008 29.77 837 24.72 -14.9 5.2 85 -16.8 1.7 0
01:38 1008 29.77 837 24.72 -15 5.1 90 -16.2 2.8 0
01:39 1008 29.77 837 24.72 -14.6 5.7 94 -15.4 4.2 0
01:40 1008 29.77 837 24.72 -14.2 6.5 91 -15.4 4.4 0
01:41 1008 29.77 837 24.72 -14.4 6.1 82 -16.8 1.8 0
01:42 1008 29.77 837 24.72 -14.8 5.4 86 -16.7 2 0
01:43 1008 29.77 837 24.72 -15 4.9 86 -16.9 1.6 0
01:44 1008 29.77 837 24.72 -15 5.1 92 -15.9 3.3 0
01:45 1008 29.77 837 24.72 -14.7 5.5 90 -16 3.2 0
01:46 1008 29.77 837 24.72 -14.6 5.7 89 -16.1 3 0
01:47 1008 29.77 837 24.72 -14.8 5.4 85 -16.8 1.8 0
01:48 1008 29.77 837 24.72 -15 5 87 -16.7 2 0
01:49 1008 29.77 837 24.72 -15.1 4.9 87 -16.8 1.8 0
01:50 1008 29.77 837 24.72 -15.3 4.5 85 -17.2 1 0
01:51 1008 29.77 837 24.72 -15.5 4.2 84 -17.5 0.4 0
01:52 1008 29.77 837 24.72 -15.5 4 88 -17 1.3 0
01:53 1008 29.77 837 24.72 -15.5 4.1 90 -16.8 1.7 0
01:54 1008 29.77 837 24.72 -15.4 4.4 93 -16.3 2.7 0
01:55 1008 29.77 837 24.72 -15.2 4.6 90 -16.5 2.2 0
01:56 1008 29.77 837 24.72 -15.4 4.2 85 -17.4 0.8 0
01:57 1008 29.77 837 24.72 -15.7 3.8 86 -17.5 0.5 0
01:58 1008 29.77 837 24.72 -15.9 3.5 87 -17.6 0.3 0
01:59 1008 29.77 837 24.72 -16.1 3.1 86 -17.9 -0.3 0
02:00 1008 29.77 837 24.72 -16.3 2.8 87 -17.9 -0.3 0
02:01 1008 29.77 837 24.72 -16.2 2.8 90 -17.4 0.6 0
02:02 1008 29.77 837 24.72 -16.2 2.8 88 -17.8 -0.1 0
02:03 1008 29.77 837 24.72 -16.2 2.9 93 -17 1.4 0
02:04 1008 29.77 837 24.72 -16 3.1 91 -17.2 1 0
02:05 1008 29.77 837 24.72 -15.9 3.4 91 -17 1.3 0
02:06 1008 29.77 837 24.72 -15.9 3.4 88 -17.4 0.6 0
02:07 1008 29.77 837 24.72 -15.9 3.3 93 -16.8 1.7 0
02:08 1008 29.77 837 24.72 -15.4 4.2 96 -15.9 3.4 0
02:09 1008 29.77 837 24.72 -14.7 5.5 99 -14.9 5.2 0
02:10 1008 29.77 837 24.72 -14.2 6.5 98 -14.4 6 0
02:11 1008 29.77 837 24.72 -13.8 7.1 98 -14.1 6.5 0
02:12 1008 29.77 837 24.72 -13.6 7.5 95 -14.3 6.3 0
02:13 1008 29.77 837 24.72 -13.5 7.8 95 -14.1 6.6 0
02:14 1008 29.77 837 24.72 -13.6 7.5 91 -14.8 5.3 0
02:15 1008 29.77 837 24.72 -13.4 7.9 96 -14 6.9 0
02:16 1008 29.77 837 24.72 -12.9 8.7 97 -13.3 8 0
02:17 1008 29.77 837 24.72 -12.8 9.1 94 -13.6 7.6 0
02:18 1008 29.77 837 24.72 -12.5 9.5 94 -13.4 8 0
02:19 1008 29.77 837 24.72 -12.7 9.2 88 -14.2 6.4 0
02:20 1008 29.77 837 24.72 -12.8 9 92 -13.7 7.3 0
02:21 1008 29.77 837 24.72 -12.7 9.2 90 -14 6.8 0
02:22 1008 29.77 837 24.72 -12.8 8.9 93 -13.7 7.3 0
02:23 1008 29.77 837 24.72 -12.6 9.4 95 -13.2 8.2 0
02:24 1008 29.77 837 24.72 -12.3 9.8 96 -12.9 8.9 0
02:25 1008 29.77 837 24.72 -11.9 10.6 96 -12.4 9.6 0
02:26 1008 29.77 837 24.72 -11.9 10.5 90 -13.3 8 0
02:27 1008 29.77 837 24.72 -12.2 10 88 -13.8 7.1 0
02:28 1008 29.77 837 24.72 -12.5 9.5 85 -14.5 5.9 0
02:29 1008 29.77 837 24.72 -13 8.7 85 -14.9 5.2 0
02:30 1008 29.77 837 24.72 -13.2 8.2 87 -14.9 5.1 0
02:31 1008 29.77 837 24.72 -13.4 8 91 -14.6 5.8 0
02:32 1008 29.77 837 24.72 -13.1 8.4 95 -13.7 7.3 0
02:33 1008 29.77 837 24.72 -12.7 9.2 95 -13.3 8.1 0
02:34 1008 29.77 837 24.72 -12.3 9.8 96 -12.8 9 0
02:35 1008 29.77 837 24.72 -12.2 10 89 -13.8 7.2 0
02:36 1008 29.77 837 24.72 -12.3 9.9 91 -13.4 7.8 0
02:37 1008 29.77 837 24.72 -12 10.4 96 -12.5 9.6 0
02:38 1008 29.77 837 24.72 -11.7 11 93 -12.5 9.5 0
02:39 1008 29.77 837 24.72 -11.6 11 91 -12.8 8.9 0
02:40 1008 29.77 837 24.72 -11.6 11.1 93 -12.5 9.5 0
02:41 1008 29.77 837 24.72 -11.4 11.5 93 -12.4 9.8 0
02:42 1008 29.77 837 24.72 -11.3 11.6 92 -12.3 9.8 0
02:43 1008 29.77 837 24.72 -11.3 11.6 90 -12.6 9.4 0
02:44 1008 29.77 837 24.72 -11.3 11.7 93 -12.3 9.9 0
02:45 1008 29.77 837 24.72 -11.2 11.9 91 -12.4 9.6 0
02:46 1008 29.77 837 24.72 -11.3 11.7 90 -12.7 9.2 0
02:47 1008 29.77 837 24.72 -11.2 11.8 94 -12.1 10.3 0
02:48 1008 29.77 837 24.72 -10.8 12.6 96 -11.3 11.6 0
02:49 1008 29.77 837 24.72 -10.4 13.4 95 -11 12.2 0
02:50 1008 29.77 837 24.72 -10 14 92 -11.1 12.1 0
02:51 1008 29.77 837 24.72 -10 14 87 -11.7 10.9 0
02:52 1008 29.77 837 24.72 -10.2 13.6 85 -12.3 9.9 0
02:53 1008 29.77 837 24.72 -10.7 12.8 84 -12.8 8.9 0
02:54 1008 29.77 837 24.72 -11.1 12 85 -13.2 8.3 0
02:55 1008 29.77 837 24.72 -11.3 11.6 88 -12.9 8.7 0
02:56 1008 29.77 837 24.72 -11.4 11.5 89 -12.8 8.9 0
02:57 1008 29.77 837 24.72 -11.4 11.6 91 -12.6 9.4 0
02:58 1008 29.77 837 24.72 -11.3 11.7 90 -12.7 9.2 0
02:59 1008 29.77 837 24.72 -11.2 11.8 89 -12.8 9 0
03:00 1008 29.77 837 24.72 -11.3 11.7 90 -12.6 9.4 0
03:01 1008 29.77 837 24.72 -11.1 12 88 -12.7 9.2 0
03:02 1008 29.77 837 24.72 -11.2 11.9 86 -13.1 8.5 0
03:03 1008 29.77 837 24.72 -11.2 11.8 86 -13.1 8.5 0
03:04 1008 29.77 837 24.72 -11.1 12 86 -13 8.6 0
03:05 1008 29.77 837 24.72 -11.1 12 85 -13.2 8.3 0
03:06 1008 29.77 837 24.72 -11.2 11.9 84 -13.4 7.9 0
03:07 1008 29.77 837 24.72 -11.3 11.6 85 -13.4 7.8 0
03:08 1008 29.77 837 24.72 -11.3 11.6 85 -13.4 7.9 0
03:09 1008 29.77 837 24.72 -11.4 11.5 84 -13.5 7.6 0
03:10 1008 29.77 837 24.72 -11.5 11.3 83 -13.8 7.2 0
03:11 1008 29.77 837 24.72 -11.7 11 84 -13.9 7 0
03:12 1008 29.77 837 24.72 -11.8 10.8 86 -13.7 7.4 0
03:13 1008 29.77 837 24.72 -11.7 10.9 87 -13.5 7.8 0
03:14 1008 29.77 837 24.72 -11.6 11.1 87 -13.3 8 0
03:15 1008 29.77 837 24.72 -11.5 11.4 87 -13.2 8.3 0
03:16 1008 29.77 837 24.72 -11.3 11.6 86 -13.2 8.3 0
03:17 1008 29.77 837 24.72 -11.2 11.8 85 -13.3 8.1 0
03:18 1008 29.77 837 24.72 -11.3 11.7 83 -13.6 7.6 0
03:19 1008 29.77 837 24.72 -11.3 11.6 85 -13.3 8 0
03:20 1008 29.77 837 24.72 -11.4 11.5 82 -13.9 7 0
03:21 1008 29.77 837 24.72 -11.6 11.2 82 -14 6.8 0
03:22 1008 29.77 837 24.72 -11.6 11.1 86 -13.6 7.6 0
03:23 1008 29.77 837 24.72 -11.4 11.5 85 -13.4 7.9 0
03:24 1008 29.77 837 24.72 -11.2 11.9 85 -13.3 8.1 0
03:25 1008 29.77 837 24.72 -11 12.2 81 -13.6 7.6 0
03:26 1008 29.77 837 24.72 -11.1 12.1 80 -13.8 7.1 0
03:27 1008 29.77 837 24.72 -11.2 11.9 79 -14.1 6.5 0
03:28 1008 29.77 837 24.72 -11.4 11.6 80 -14.1 6.7 0
03:29 1008 29.77 837 24.72 -11.6 11.1 79 -14.5 5.9 0
03:30 1008 29.77 837 24.72 -11.6 11 81 -14.2 6.4 0
03:31 1008 29.77 837 24.72 -11.7 11 79 -14.6 5.7 0
03:32 1008 29.77 837 24.72 -12 10.4 79 -14.9 5.3 0
03:33 1008 29.77 837 24.72 -12.2 10 80 -15 5 0
03:34 1008 29.77 837 24.72 -12.4 9.7 81 -15.1 4.9 0
03:35 1008 29.77 837 24.72 -12.5 9.6 82 -15 5 0
03:36 1008 29.77 837 24.72 -12.5 9.5 80 -15.3 4.4 0
03:37 1008 29.77 837 24.72 -12.6 9.3 80 -15.3 4.5 0
03:38 1008 29.77 837 24.72 -12.7 9.1 82 -15.2 4.6 0
03:39 1008 29.77 837 24.72 -12.6 9.2 81 -15.2 4.6 0
03:40 1008 29.77 837 24.72 -12.9 8.8 75 -16.5 2.3 0
03:41 1007 29.74 837 24.72 -13.5 7.7 80 -16.2 2.8 0
03:42 1007 29.74 837 24.72 -13.8 7.2 80 -16.6 2.1 0
03:43 1007 29.74 837 24.72 -14.1 6.7 80 -16.8 1.7 0
03:44 1007 29.74 837 24.72 -14.3 6.3 83 -16.6 2 0
03:45 1007 29.74 837 24.72 -14.3 6.2 83 -16.6 2.1 0
03:46 1007 29.74 837 24.72 -14.3 6.3 83 -16.6 2.2 0
03:47 1007 29.74 837 24.72 -14.3 6.2 84 -16.5 2.4 0
03:48 1007 29.74 837 24.72 -14.3 6.3 81 -16.9 1.6 0
03:49 1007 29.74 837 24.72 -14.4 6 83 -16.7 1.9 0
03:50 1007 29.74 837 24.72 -14.4 6 84 -16.5 2.3 0
03:51 1007 29.74 837 24.72 -14.3 6.2 86 -16.2 2.8 0
03:52 1007 29.74 837 24.72 -14.2 6.5 85 -16.2 2.9 0
03:53 1007 29.74 837 24.72 -14 6.8 84 -16.2 2.8 0
03:54 1007 29.74 837 24.72 -13.9 6.9 82 -16.4 2.5 0
03:55 1007 29.74 837 24.72 -14.1 6.7 84 -16.3 2.7 0
03:56 1007 29.74 837 24.72 -14.2 6.4 79 -17.1 1.3 0
03:57 1007 29.74 837 24.72 -14.6 5.7 79 -17.4 0.6 0
03:58 1007 29.74 836 24.69 -15.1 4.9 80 -17.8 -0 0
03:59 1007 29.74 836 24.69 -15.4 4.2 82 -17.8 -0 0
04:00 1007 29.74 836 24.69 -15.7 3.8 83 -17.9 -0.3 0
04:01 1007 29.74 836 24.69 -15.8 3.6 86 -17.6 0.4 0
04:02 1007 29.74 836 24.69 -15.6 3.8 87 -17.3 0.8 0
04:03 1007 29.74 837 24.72 -15.3 4.5 89 -16.7 2 0
04:04 1007 29.74 837 24.72 -14.6 5.7 89 -16 3.2 0
04:05 1007 29.74 837 24.72 -13.9 7 87 -15.6 4 0
04:06 1007 29.74 837 24.72 -13.3 8.1 84 -15.5 4.1 0
04:07 1007 29.74 837 24.72 -13 8.6 79 -15.9 3.4 0
04:08 1007 29.74 837 24.72 -13 8.5 81 -15.7 3.8 0
04:09 1007 29.74 837 24.72 -13.1 8.3 78 -16.2 2.8 0
04:10 1007 29.74 836 24.69 -13.5 7.7 78 -16.6 2.1 0
04:11 1007 29.74 836 24.69 -13.8 7.1 79 -16.7 1.9 0
04:12 1007 29.74 836 24.69 -14 6.8 79 -16.9 1.6 0
04:13 1007 29.74 836 24.69 -14.3 6.3 80 -17 1.3 0
04:14 1007 29.74 836 24.69 -14.4 6.2 84 -16.6 2.2 0
04:15 1007 29.74 836 24.69 -14.1 6.6 85 -16.1 2.9 0
04:16 1007 29.74 837 24.72 -13.8 7.2 84 -16 3.2 0
04:17 1007 29.74 837 24.72 -13.5 7.6 83 -15.9 3.4 0
04:18 1007 29.74 837 24.72 -13.5 7.7 81 -16.2 2.9 0
04:19 1007 29.74 837 24.72 -13.6 7.6 79 -16.4 2.4 0
04:20 1007 29.74 837 24.72 -13.8 7.1 77 -17.1 1.3 0
04:21 1007 29.74 837 24.72 -14.3 6.2 81 -16.9 1.6 0
04:22 1007 29.74 837 24.72 -14.6 5.7 88 -16.2 2.8 0
04:23 1007 29.74 837 24.72 -14.7 5.6 85 -16.6 2.1 0
04:24 1007 29.74 837 24.72 -14.6 5.6 91 -15.8 3.6 0
04:25 1007 29.74 837 24.72 -14.4 6.2 90 -15.6 3.9 0
04:26 1007 29.74 837 24.72 -14.1 6.7 92 -15.1 4.8 0
04:27 1007 29.74 837 24.72 -13.7 7.3 91 -14.9 5.2 0
04:28 1007 29.74 837 24.72 -13.4 7.8 89 -14.8 5.3 0
04:29 1007 29.74 837 24.72 -13.5 7.8 89 -14.9 5.2 0
04:30 1007 29.74 837 24.72 -13.3 8.1 91 -14.4 6.1 0
04:31 1007 29.74 837 24.72 -13.5 7.8 78 -16.5 2.4 0
04:32 1007 29.74 837 24.72 -14 6.8 86 -15.9 3.4 0
04:33 1007 29.74 837 24.72 -14.2 6.5 87 -15.9 3.3 0
04:34 1007 29.74 837 24.72 -14.2 6.4 90 -15.6 4 0
04:35 1007 29.74 837 24.72 -14 6.8 90 -15.3 4.5 0
04:36 1007 29.74 837 24.72 -13.9 7 84 -16 3.2 0
04:37 1007 29.74 837 24.72 -14.2 6.4 84 -16.4 2.5 0
04:38 1007 29.74 837 24.72 -14.4 6.1 88 -16 3.3 0
04:39 1007 29.74 837 24.72 -14.3 6.2 89 -15.7 3.7 0
04:40 1007 29.74 837 24.72 -14.1 6.6 90 -15.3 4.4 0
04:41 1007 29.74 837 24.72 -13.8 7.1 91 -15 4.9 0
04:42 1007 29.74 837 24.72 -13.3 8.1 93 -14.2 6.4 0
04:43 1007 29.74 837 24.72 -12.8 8.9 85 -14.9 5.3 0
04:44 1007 29.74 837 24.72 -12.7 9.1 86 -14.6 5.7 0
04:45 1007 29.74 837 24.72 -12.4 9.6 88 -14 6.7 0
04:46 1007 29.74 837 24.72 -12.6 9.4 81 -15.2 4.6 0
04:47 1007 29.74 836 24.69 -13 8.6 84 -15.2 4.6 0
04:48 1007 29.74 837 24.72 -13 8.6 86 -14.9 5.2 0
04:49 1007 29.74 837 24.72 -13 8.7 81 -15.6 3.9 0
04:50 1007 29.74 836 24.69 -13.3 8.1 84 -15.5 4.2 0
04:51 1007 29.74 836 24.69 -13.3 8 82 -15.8 3.6 0
04:52 1007 29.74 836 24.69 -13.6 7.6 83 -15.9 3.4 0
04:53 1007 29.74 836 24.69 -13.8 7.1 80 -16.6 2.2 0
04:54 1007 29.74 836 24.69 -14.3 6.3 82 -16.7 1.9 0
04:55 1007 29.74 836 24.69 -14.5 6 85 -16.4 2.4 0
04:56 1007 29.74 836 24.69 -14.6 5.6 82 -17.1 1.2 0
04:57 1007 29.74 836 24.69 -14.9 5.1 87 -16.6 2.1 0
04:58 1007 29.74 836 24.69 -14.8 5.5 89 -16.2 2.9 0
04:59 1007 29.74 836 24.69 -14.7 5.6 84 -16.8 1.7 0
05:00 1007 29.74 836 24.69 -15 5.1 82 -17.3 0.8 0
05:01 1007 29.74 836 24.69 -15 5 89 -16.4 2.5 0
05:02 1007 29.74 836 24.69 -15 5.1 85 -17 1.4 0
05:03 1007 29.74 836 24.69 -15 5.1 93 -15.9 3.4 0
05:04 1007 29.74 836 24.69 -14.7 5.6 87 -16.4 2.6 0
05:05 1007 29.74 836 24.69 -14.9 5.3 83 -17.1 1.2 0
05:06 1007 29.74 836 24.69 -15.2 4.7 88 -16.8 1.8 0
05:07 1007 29.74 836 24.69 -15.1 4.9 91 -16.2 2.9 0
05:08 1007 29.74 836 24.69 -15 5.1 87 -16.6 2 0
05:09 1007 29.74 837 24.72 -15.2 4.7 85 -17.1 1.2 0
05:10 1007 29.74 837 24.72 -15.3 4.5 87 -17 1.3 0
05:11 1007 29.74 837 24.72 -15.5 4.1 87 -17.2 1.1 0
05:12 1007 29.74 837 24.72 -15.6 3.9 86 -17.5 0.6 0
05:13 1007 29.74 837 24.72 -15.7 3.8 89 -17.1 1.3 0
05:14 1007 29.74 837 24.72 -15.7 3.8 88 -17.2 1.1 0
05:15 1007 29.74 837 24.72 -15.7 3.7 88 -17.2 1 0
05:16 1007 29.74 837 24.72 -15.7 3.8 90 -16.9 1.6 0
05:17 1007 29.74 837 24.72 -15.5 4 91 -16.6 2 0
05:18 1007 29.74 837 24.72 -15.4 4.3 90 -16.7 1.9 0
05:19 1007 29.74 837 24.72 -15.4 4.3 88 -16.9 1.6 0
05:20 1007 29.74 837 24.72 -15.5 4.2 87 -17.2 1.1 0
05:21 1007 29.74 837 24.72 -15.6 3.9 87 -17.3 0.8 0
05:22 1007 29.74 837 24.72 -15.5 4.1 91 -16.6 2.1 0
05:23 1007 29.74 837 24.72 -15.3 4.4 93 -16.3 2.7 0
05:24 1007 29.74 837 24.72 -15.2 4.7 92 -16.2 2.9 0
05:25 1007 29.74 837 24.72 -14.8 5.4 95 -15.4 4.2 0
05:26 1007 29.74 837 24.72 -14.5 6 94 -15.3 4.5 0
05:27 1007 29.74 837 24.72 -14.6 5.8 89 -16 3.1 0
05:28 1007 29.74 837 24.72 -14.4 6.1 96 -14.9 5.2 0
05:29 1007 29.74 837 24.72 -13.8 7.2 96 -14.3 6.2 0
05:30 1007 29.74 837 24.72 -13.7 7.4 90 -14.9 5.1 0
05:31 1007 29.74 837 24.72 -13.7 7.3 91 -14.9 5.2 0
05:32 1007 29.74 836 24.69 -13 8.7 95 -13.6 7.6 0
05:33 1007 29.74 836 24.69 -12.4 9.7 89 -13.8 7.1 0
05:34 1007 29.74 836 24.69 -12.5 9.5 78 -15.6 3.9 0
05:35 1007 29.74 836 24.69 -13.1 8.5 82 -15.6 4 0
05:36 1007 29.74 836 24.69 -13.2 8.3 85 -15.2 4.7 0
05:37 1007 29.74 836 24.69 -13 8.6 88 -14.6 5.8 0
05:38 1007 29.74 836 24.69 -12.7 9.1 86 -14.5 5.8 0
05:39 1007 29.74 836 24.69 -12.5 9.5 87 -14.3 6.3 0
05:40 1007 29.74 836 24.69 -12.4 9.7 83 -14.7 5.5 0
05:41 1007 29.74 836 24.69 -12.3 9.8 83 -14.6 5.7 0
05:42 1007 29.74 836 24.69 -12.4 9.7 85 -14.4 6 0
05:43 1007 29.74 836 24.69 -12.4 9.7 83 -14.7 5.6 0
05:44 1007 29.74 836 24.69 -12.3 9.9 85 -14.2 6.4 0
05:45 1007 29.74 836 24.69 -12.3 10 79 -15.2 4.7 0
05:46 1007 29.74 836 24.69 -12.6 9.4 80 -15.4 4.3 0
05:47 1007 29.74 836 24.69 -12.8 9 83 -15.1 4.8 0
05:48 1007 29.74 836 24.69 -12.9 8.7 82 -15.4 4.3 0
05:49 1007 29.74 836 24.69 -13.2 8.3 77 -16.4 2.4 0
05:50 1007 29.74 836 24.69 -13.7 7.4 75 -17.2 1.1 0
05:51 1007 29.74 836 24.69 -14 6.7 83 -16.3 2.6 0
05:52 1007 29.74 836 24.69 -14.1 6.6 83 -16.4 2.5 0
05:53 1007 29.74 836 24.69 -14.2 6.5 81 -16.7 1.9 0
05:54 1007 29.74 836 24.69 -14.3 6.2 81 -16.9 1.6 0
05:55 1007 29.74 836 24.69 -14.5 5.9 82 -16.9 1.6 0
05:56 1007 29.74 836 24.69 -14.7 5.6 82 -17.1 1.2 0
05:57 1007 29.74 836 24.69 -14.9 5.2 83 -17.2 1.1 0
05:58 1007 29.74 836 24.69 -14.8 5.4 91 -15.9 3.3 0
05:59 1007 29.74 837 24.72 -14.4 6 87 -16.1 3.1 0
06:00 1007 29.74 836 24.69 -14.1 6.6 88 -15.7 3.7 0
06:01 1007 29.74 836 24.69 -13.9 6.9 84 -16.1 3 0
06:02 1007 29.74 836 24.69 -14.2 6.5 84 -16.3 2.7 0
06:03 1007 29.74 836 24.69 -14.4 6 84 -16.6 2.2 0
06:04 1007 29.74 836 24.69 -14.3 6.3 93 -15.2 4.6 0
06:05 1007 29.74 836 24.69 -13.5 7.7 93 -14.4 6.1 0
06:06 1007 29.74 836 24.69 -13.3 8 80 -16.1 3.1 0
06:07 1007 29.74 836 24.69 -13.8 7.2 81 -16.4 2.5 0
06:08 1007 29.74 836 24.69 -14.1 6.7 88 -15.6 3.8 0
06:09 1007 29.74 836 24.69 -13.7 7.3 87 -15.4 4.2 0
06:10 1007 29.74 836 24.69 -13.7 7.4 79 -16.6 2.1 0
06:11 1007 29.74 836 24.69 -14.2 6.5 74 -17.9 -0.2 0
06:12 1007 29.74 836 24.69 -14.9 5.2 75 -18.3 -1 0
06:13 1007 29.74 836 24.69 -15.4 4.2 81 -18 -0.3 0
06:14 1007 29.74 836 24.69 -15.6 3.9 85 -17.7 0.2 0
06:15 1007 29.74 836 24.69 -15.5 4.1 89 -16.9 1.6 0
06:16 1007 29.74 836 24.69 -15.2 4.7 90 -16.5 2.3 0
06:17 1007 29.74 836 24.69 -14.9 5.3 86 -16.7 1.9 0
06:18 1007 29.74 836 24.69 -14.9 5.3 86 -16.8 1.8 0
06:19 1007 29.74 836 24.69 -14.8 5.3 86 -16.6 2 0
06:20 1007 29.74 836 24.69 -14.8 5.3 85 -16.8 1.7 0
06:21 1007 29.74 836 24.69 -14.8 5.3 83 -17.1 1.2 0
06:22 1007 29.74 836 24.69 -15 4.9 80 -17.8 -0.1 0
06:23 1007 29.74 836 24.69 -15.4 4.3 84 -17.5 0.4 0
06:24 1007 29.74 836 24.69 -15.5 4.1 83 -17.7 0.1 0
06:25 1007 29.74 836 24.69 -15.7 3.8 83 -17.9 -0.2 0
06:26 1007 29.74 836 24.69 -15.8 3.5 79 -18.7 -1.6 0
06:27 1007 29.74 836 24.69 -16.3 2.7 82 -18.7 -1.6 0
06:28 1007 29.74 836 24.69 -16.3 2.6 85 -18.3 -0.9 0
06:29 1007 29.74 836 24.69 -16.3 2.6 84 -18.4 -1.1 0
06:30 1007 29.74 836 24.69 -16.2 2.9 86 -18.1 -0.5 0
06:31 1007 29.74 836 24.69 -16 3.2 85 -18 -0.3 0
06:32 1007 29.74 836 24.69 -15.9 3.4 81 -18.5 -1.3 0
06:33 1007 29.74 836 24.69 -16.1 3.1 83 -18.2 -0.8 0
06:34 1007 29.74 836 24.69 -16.1 3.1 86 -17.9 -0.2 0
06:35 1007 29.74 837 24.72 -15.8 3.6 88 -17.4 0.8 0
06:36 1007 29.74 837 24.72 -15.3 4.4 90 -16.7 2 0
06:37 1007 29.74 837 24.72 -14.7 5.5 86 -16.5 2.3 0
06:38 1007 29.74 837 24.72 -14.4 6.1 84 -16.5 2.2 0
06:39 1007 29.74 837 24.72 -14.3 6.3 84 -16.5 2.4 0
06:40 1007 29.74 837 24.72 -14.2 6.5 84 -16.3 2.6 0
06:41 1007 29.74 837 24.72 -14.1 6.6 82 -16.6 2.2 0
06:42 1007 29.74 837 24.72 -14.2 6.4 83 -16.5 2.3 0
06:43 1007 29.74 837 24.72 -14.1 6.5 85 -16.1 3 0
06:44 1007 29.74 837 24.72 -14 6.8 85 -16.1 3.1 0
06:45 1007 29.74 837 24.72 -13.9 6.9 84 -16.1 3.1 0
06:46 1007 29.74 837 24.72 -13.7 7.4 85 -15.7 3.7 0
06:47 1007 29.74 837 24.72 -13.5 7.8 78 -16.6 2.2 0
06:48 1007 29.74 836 24.69 -13.7 7.3 80 -16.5 2.3 0
06:49 1007 29.74 836 24.69 -13.9 7.1 81 -16.5 2.3 0
06:50 1007 29.74 837 24.72 -13.9 7 80 -16.7 2 0
06:51 1007 29.74 837 24.72 -14 6.8 80 -16.7 1.9 0
06:52 1007 29.74 836 24.69 -14.1 6.6 79 -17 1.5 0
06:53 1007 29.74 837 24.72 -14.3 6.4 80 -17 1.3 0
06:54 1007 29.74 837 24.72 -14.4 6.2 81 -17 1.4 0
06:55 1007 29.74 837 24.72 -14.4 6.1 80 -17.2 1 0
06:56 1007 29.74 837 24.72 -14.5 5.9 79 -17.3 0.8 0
06:57 1007 29.74 837 24.72 -14.7 5.6 80 -17.4 0.8 0
06:58 1007 29.74 837 24.72 -14.7 5.5 84 -16.8 1.7 0
06:59 1007 29.74 837 24.72 -14.5 6 86 -16.3 2.7 0
07:00 1007 29.74 837 24.72 -14.1 6.6 84 -16.2 2.8 0
07:01 1007 29.74 837 24.72 -13.8 7.3 82 -16.2 2.8 0
07:02 1007 29.74 837 24.72 -13.6 7.6 82 -16 3.2 0
07:03 1007 29.74 837 24.72 -13.4 7.9 81 -16 3.1 0
07:04 1007 29.74 837 24.72 -13.3 8.1 80 -16 3.1 0
07:05 1007 29.74 837 24.72 -13.2 8.2 77 -16.4 2.4 0
07:06 1007 29.74 837 24.72 -13.4 7.9 76 -16.8 1.7 0
07:07 1007 29.74 837 24.72 -13.8 7.2 76 -17.2 1.1 0
07:08 1007 29.74 837 24.72 -14 6.8 81 -16.7 2 0
07:09 1007 29.74 837 24.72 -14 6.8 79 -17 1.5 0
07:10 1007 29.74 837 24.72 -14.1 6.7 77 -17.2 1 0
07:11 1007 29.74 837 24.72 -14.3 6.3 77 -17.4 0.6 0
07:12 1007 29.74 837 24.72 -14.4 6 79 -17.3 0.9 0
07:13 1007 29.74 837 24.72 -14.5 6 80 -17.2 1.1 0
07:14 1007 29.74 837 24.72 -14.4 6.1 82 -16.8 1.7 0
07:15 1007 29.74 837 24.72 -14.2 6.5 80 -17 1.4 0
07:16 1007 29.74 837 24.72 -14.2 6.5 81 -16.8 1.8 0
07:17 1007 29.74 837 24.72 -14.1 6.6 82 -16.5 2.3 0
07:18 1008 29.77 837 24.72 -13.9 7 83 -16.3 2.7 0
07:19 1008 29.77 837 24.72 -13.7 7.3 81 -16.3 2.6 0
07:20 1008 29.77 837 24.72 -13.6 7.5 79 -16.5 2.2 0
07:21 1008 29.77 837 24.72 -13.7 7.4 79 -16.6 2.2 0
07:22 1008 29.77 837 24.72 -13.7 7.4 79 -16.6 2.2 0
07:23 1008 29.77 837 24.72 -13.6 7.5 77 -16.9 1.6 0
07:24 1008 29.77 837 24.72 -13.8 7.1 76 -17.3 0.9 0
07:25 1008 29.77 837 24.72 -14 6.9 78 -17 1.5 0
07:26 1008 29.77 837 24.72 -13.9 7 78 -16.9 1.6 0
07:27 1008 29.77 837 24.72 -13.7 7.3 76 -17 1.4 0
07:28 1008 29.77 837 24.72 -13.6 7.5 78 -16.8 1.8 0
07:29 1008 29.77 837 24.72 -13.7 7.4 80 -16.4 2.4 0
07:30 1008 29.77 837 24.72 -13.6 7.6 84 -15.7 3.7 0
07:31 1008 29.77 837 24.72 -13 8.7 80 -15.8 3.6 0
07:32 1008 29.77 837 24.72 -12.2 10 75 -15.7 3.7 0
07:33 1008 29.77 837 24.72 -11.9 10.6 74 -15.5 4 0
07:34 1008 29.77 837 24.72 -11.7 11 74 -15.4 4.3 0
07:35 1008 29.77 837 24.72 -11.4 11.5 73 -15.4 4.3 0
07:36 1008 29.77 837 24.72 -11.3 11.7 72 -15.3 4.4 0
07:37 1008 29.77 837 24.72 -11.2 11.8 73 -15.2 4.6 0
07:38 1008 29.77 837 24.72 -11.2 11.8 73 -15.2 4.7 0
07:39 1008 29.77 837 24.72 -11.2 11.9 73 -15.1 4.8 0
07:40 1008 29.77 837 24.72 -11.2 11.9 73 -15.1 4.7 0
07:41 1008 29.77 837 24.72 -11.3 11.7 74 -15.1 4.8 0
07:42 1008 29.77 837 24.72 -11.5 11.4 75 -15 5 0
07:43 1008 29.77 837 24.72 -11.5 11.2 76 -15 5 0
07:44 1008 29.77 837 24.72 -11.6 11.2 76 -15 5 0
07:45 1008 29.77 837 24.72 -11.5 11.3 76 -14.9 5.1 0
07:46 1008 29.77 837 24.72 -11.6 11.2 76 -14.9 5.1 0
07:47 1008 29.77 837 24.72 -11.5 11.3 77 -14.9 5.2 0
07:48 1008 29.77 837 24.72 -11.5 11.3 77 -14.8 5.3 0
07:49 1008 29.77 837 24.72 -11.5 11.3 76 -14.9 5.3 0
07:50 1008 29.77 837 24.72 -11.5 11.2 76 -15 5.1 0
07:51 1008 29.77 837 24.72 -11.6 11.2 76 -14.9 5.1 0
07:52 1008 29.77 837 24.72 -11.6 11.1 76 -15.1 4.9 0
07:53 1008 29.77 837 24.72 -11.8 10.9 76 -15.1 4.8 0
07:54 1008 29.77 837 24.72 -11.8 10.9 77 -15 5 0
07:55 1008 29.77 837 24.72 -11.8 10.8 77 -15 5.1 0
07:56 1008 29.77 837 24.72 -11.7 10.9 78 -14.9 5.2 0
07:57 1008 29.77 837 24.72 -11.6 11 78 -14.8 5.3 0
07:58 1008 29.77 837 24.72 -11.5 11.2 77 -14.7 5.5 0
07:59 1008 29.77 837 24.72 -11.5 11.4 77 -14.7 5.5 0
08:00 1008 29.77 837 24.72 -11.4 11.4 77 -14.7 5.6 0
08:01 1008 29.77 837 24.72 -11.4 11.4 77 -14.6 5.7 0
08:02 1008 29.77 837 24.72 -11.4 11.6 78 -14.5 5.9 0
08:03 1008 29.77 837 24.72 -11.3 11.7 77 -14.5 5.9 0
08:04 1008 29.77 837 24.72 -11.2 11.8 77 -14.5 5.9 0
08:05 1008 29.77 837 24.72 -11.2 11.9 77 -14.4 6.1 0
08:06 1008 29.77 837 24.72 -11.1 12 77 -14.4 6.2 0
08:07 1008 29.77 837 24.72 -11.1 12 77 -14.4 6.1 0
08:08 1008 29.77 837 24.72 -11 12.1 77 -14.2 6.4 0
08:09 1008 29.77 837 24.72 -11 12.2 78 -14.2 6.5 0
08:10 1008 29.77 837 24.72 -10.9 12.4 77 -14.1 6.6 0
08:11 1008 29.77 837 24.72 -10.8 12.5 77 -14.2 6.5 0
08:12 1008 29.77 837 24.72 -10.7 12.7 77 -14.1 6.7 0
08:13 1008 29.77 837 24.72 -10.7 12.7 77 -14 6.8 0
08:14 1008 29.77 837 24.72 -10.7 12.8 76 -14 6.7 0
08:15 1008 29.77 837 24.72 -10.6 13 76 -13.9 6.9 0
08:16 1008 29.77 837 24.72 -10.5 13.2 76 -13.9 6.9 0
08:17 1008 29.77 837 24.72 -10.4 13.3 76 -13.9 7 0
08:18 1008 29.77 837 24.72 -10.2 13.6 76 -13.8 7.2 0
08:19 1008 29.77 837 24.72 -10.1 13.9 75 -13.7 7.3 0
08:20 1008 29.77 837 24.72 -9.9 14.2 74 -13.7 7.4 0
08:21 1008 29.77 837 24.72 -9.7 14.5 74 -13.6 7.5 0
08:22 1008 29.77 837 24.72 -9.6 14.7 72 -13.7 7.3 0
08:23 1008 29.77 837 24.72 -9.7 14.6 73 -13.7 7.3 0
08:24 1008 29.77 837 24.72 -9.6 14.8 73 -13.5 7.7 0
08:25 1008 29.77 837 24.72 -9.5 15 73 -13.4 7.8 0
08:26 1008 29.77 837 24.72 -9.4 15.1 73 -13.4 7.9 0
08:27 1008 29.77 837 24.72 -9.4 15.1 73 -13.3 8 0
08:28 1008 29.77 837 24.72 -9.5 14.9 74 -13.4 7.9 0
08:29 1008 29.77 837 24.72 -9.5 14.9 74 -13.3 8.1 0
08:30 1008 29.77 837 24.72 -9.4 15 74 -13.2 8.2 0
08:31 1008 29.77 837 24.72 -9.4 15.2 73 -13.3 8 0
08:32 1008 29.77 837 24.72 -9.4 15.2 72 -13.4 7.8 0
08:33 1008 29.77 837 24.72 -9.3 15.2 73 -13.3 8 0
08:34 1008 29.77 837 24.72 -9.2 15.5 72 -13.4 8 0
08:35 1008 29.77 837 24.72 -9 15.8 71 -13.4 7.8 0
08:36 1008 29.77 837 24.72 -8.9 16 71 -13.3 8.1 0
08:37 1008 29.77 837 24.72 -8.9 15.9 71 -13.3 8.1 0
08:38 1008 29.77 837 24.72 -9.2 15.5 72 -13.3 8 0
08:39 1008 29.77 837 24.72 -9.2 15.4 72 -13.3 8 0
08:40 1008 29.77 837 24.72 -9.3 15.3 72 -13.4 7.9 0
08:41 1008 29.77 837 24.72 -9.4 15.2 73 -13.4 7.9 0
08:42 1008 29.77 837 24.72 -9.4 15 73 -13.4 7.9 0
08:43 1008 29.77 837 24.72 -9.4 15 73 -13.4 7.9 0
08:44 1008 29.77 837 24.72 -9.4 15.1 73 -13.3 8 0
08:45 1008 29.77 837 24.72 -9.3 15.2 73 -13.3 8.1 0
08:46 1008 29.77 837 24.72 -9.2 15.4 73 -13.2 8.3 0
08:47 1008 29.77 837 24.72 -9.1 15.6 73 -13.2 8.3 0
08:48 1008 29.77 837 24.72 -9 15.7 73 -13.1 8.5 0
08:49 1008 29.77 837 24.72 -9 15.7 73 -13.1 8.4 0
08:50 1008 29.77 837 24.72 -9 15.7 73 -13 8.6 0
08:51 1008 29.77 837 24.72 -9 15.9 73 -13 8.6 0
08:52 1008 29.77 837 24.72 -8.9 16 73 -12.9 8.8 0
08:53 1008 29.77 837 24.72 -8.8 16.2 73 -12.8 8.9 0
08:54 1008 29.77 837 24.72 -8.7 16.4 73 -12.8 9 0
08:55 1008 29.77 837 24.72 -8.6 16.6 72 -12.7 9.2 0
08:56 1008 29.77 837 24.72 -8.4 16.9 72 -12.6 9.3 0
08:57 1008 29.77 837 24.72 -8.2 17.2 72 -12.4 9.6 0
08:58 1008 29.77 837 24.72 -8 17.6 71 -12.4 9.7 0
08:59 1008 29.77 837 24.72 -7.8 18 70 -12.3 9.9 0
09:00 1008 29.77 837 24.72 -7.6 18.4 69 -12.3 9.9 0
09:01 1008 29.77 837 24.72 -7.5 18.5 69 -12.2 10.1 0
09:02 1008 29.77 837 24.72 -7.5 18.6 70 -12.1 10.3 0
09:03 1008 29.77 837 24.72 -7.5 18.5 69 -12.2 10 0
09:04 1008 29.77 837 24.72 -7.6 18.4 70 -12.2 10.1 0
09:05 1008 29.77 837 24.72 -7.7 18.2 71 -12 10.3 0
09:06 1008 29.77 837 24.72 -7.7 18.1 71 -12.2 10.1 0
09:07 1008 29.77 837 24.72 -7.8 18 70 -12.3 9.8 0
09:08 1008 29.77 837 24.72 -7.9 17.9 71 -12.3 9.9 0
09:09 1008 29.77 837 24.72 -7.9 17.8 71 -12.3 9.8 0
09:10 1008 29.77 837 24.72 -8 17.7 72 -12.2 10.1 0
09:11 1008 29.77 837 24.72 -8.1 17.4 73 -12.2 10 0
09:12 1008 29.77 837 24.72 -8.2 17.3 72 -12.4 9.7 0
09:13 1008 29.77 837 24.72 -8.2 17.3 72 -12.4 9.6 0
09:14 1008 29.77 837 24.72 -8.2 17.3 71 -12.5 9.5 0
09:15 1008 29.77 837 24.72 -8.2 17.3 71 -12.5 9.5 0
09:16 1008 29.77 837 24.72 -8.1 17.4 72 -12.4 9.7 0
09:17 1008 29.77 837 24.72 -8.1 17.5 72 -12.3 9.9 0
09:18 1008 29.77 837 24.72 -7.9 17.7 71 -12.2 10 0
09:19 1008 29.77 837 24.72 -7.8 18.1 71 -12.2 10 0
09:20 1008 29.77 837 24.72 -7.4 18.8 69 -12.1 10.2 0
09:21 1008 29.77 837 24.72 -7 19.4 67 -12.2 10 0
09:22 1008 29.77 837 24.72 -6.8 19.8 66 -12.1 10.2 0
09:23 1008 29.77 837 24.72 -6.5 20.3 66 -11.9 10.6 0
09:24 1008 29.77 837 24.72 -6.2 20.8 64 -12.1 10.3 0
09:25 1008 29.77 837 24.72 -5.9 21.3 62 -12.1 10.1 0
09:26 1008 29.77 837 24.72 -5.5 22.2 60 -12 10.3 0
09:27 1008 29.77 837 24.72 -5 23 58 -12 10.5 0
09:28 1008 29.77 837 24.72 -4.6 23.8 57 -11.8 10.8 0
09:29 1008 29.77 837 24.72 -4.3 24.2 56 -11.8 10.8 0
09:30 1008 29.77 837 24.72 -4 24.7 56 -11.6 11 0
09:31 1008 29.77 837 24.72 -3.8 25.1 55 -11.6 11.1 0
09:32 1008 29.77 837 24.72 -3.6 25.5 54 -11.7 11 0
09:33 1008 29.77 837 24.72 -3.5 25.7 54 -11.5 11.4 0
09:34 1008 29.77 837 24.72 -3.4 25.8 53 -11.8 10.8 0
09:35 1008 29.77 837 24.72 -3.8 25.2 53 -12 10.3 0
09:36 1008 29.77 837 24.72 -4.1 24.7 52 -12.5 9.6 0
09:37 1008 29.77 837 24.72 -4.2 24.4 52 -12.7 9.2 0
09:38 1008 29.77 837 24.72 -4.2 24.4 52 -12.6 9.4 0
09:39 1008 29.77 837 24.72 -4.3 24.2 54 -12.4 9.7 0
09:40 1008 29.77 837 24.72 -4.4 24.1 54 -12.4 9.7 0
09:41 1008 29.77 837 24.72 -4.4 24 54 -12.3 9.8 0
09:42 1008 29.77 837 24.72 -4.5 24 55 -12.3 9.9 0
09:43 1008 29.77 837 24.72 -4.4 24 54 -12.5 9.6 0
09:44 1008 29.77 837 24.72 -4.4 24.1 54 -12.4 9.7 0
09:45 1008 29.77 837 24.72 -4.5 23.9 53 -12.7 9.1 0
09:46 1008 29.77 837 24.72 -4.7 23.6 54 -12.5 9.4 0
09:47 1008 29.77 837 24.72 -4.9 23.3 55 -12.5 9.6 0
09:48 1008 29.77 837 24.72 -5 22.9 57 -12.3 9.8 0
09:49 1008 29.77 837 24.72 -5.2 22.7 57 -12.5 9.4 0
09:50 1008 29.77 837 24.72 -5.4 22.3 57 -12.6 9.3 0
09:51 1008 29.77 837 24.72 -5.5 22.2 57 -12.7 9.1 0
09:52 1008 29.77 837 24.72 -5.6 22 56 -13 8.7 0
09:53 1008 29.77 837 24.72 -5.6 21.9 57 -12.8 9 0
09:54 1008 29.77 837 24.72 -5.7 21.7 58 -12.6 9.2 0
09:55 1008 29.77 837 24.72 -5.7 21.8 58 -12.7 9.1 0
09:56 1008 29.77 837 24.72 -5.7 21.8 59 -12.4 9.7 0
09:57 1008 29.77 837 24.72 -5.7 21.7 60 -12.4 9.7 0
09:58 1008 29.77 837 24.72 -5.8 21.6 60 -12.3 9.9 0
09:59 1008 29.77 837 24.72 -5.9 21.4 61 -12.2 10 0
10:00 1008 29.77 837 24.72 -5.9 21.4 61 -12.4 9.8 0
10:01 1008 29.77 837 24.72 -6 21.3 61 -12.3 9.8 0
10:02 1008 29.77 837 24.72 -5.9 21.3 60 -12.4 9.7 0
10:03 1008 29.77 837 24.72 -5.9 21.3 60 -12.5 9.5 0
10:04 1008 29.77 837 24.72 -5.9 21.4 60 -12.4 9.7 0
10:05 1008 29.77 837 24.72 -5.8 21.5 61 -12.3 9.9 0
10:06 1008 29.77 837 24.72 -5.8 21.5 61 -12.3 9.9 0
10:07 1008 29.77 837 24.72 -5.8 21.5 61 -12.2 10.1 0
10:08 1008 29.77 837 24.72 -5.9 21.4 61 -12.2 10.1 0
10:09 1008 29.77 837 24.72 -6 21.2 62 -12.2 10.1 0
10:10 1008 29.77 837 24.72 -6 21.2 62 -12.2 10 0
10:11 1008 29.77 837 24.72 -6 21.1 62 -12.2 10 0
10:12 1008 29.77 837 24.72 -6.1 21 62 -12.2 10 0
10:13 1008 29.77 837 24.72 -6.2 20.8 63 -12.1 10.1 0
10:14 1008 29.77 837 24.72 -6.3 20.7 63 -12.2 10.1 0
10:15 1008 29.77 837 24.72 -6.4 20.4 64 -12.2 10 0
10:16 1008 29.77 837 24.72 -6.5 20.3 64 -12.2 10 0
10:17 1008 29.77 837 24.72 -6.6 20.1 65 -12.2 10 0
10:18 1008 29.77 837 24.72 -6.6 20.1 64 -12.2 10 0
10:19 1008 29.77 837 24.72 -6.6 20 65 -12.3 9.9 0
10:20 1008 29.77 837 24.72 -6.6 20.1 65 -12.2 10 0
10:21 1008 29.77 837 24.72 -6.6 20.1 65 -12.2 10.1 0
10:22 1008 29.77 837 24.72 -6.7 20 65 -12.2 10 0
10:23 1008 29.77 837 24.72 -6.6 20 65 -12.2 10 0
10:24 1008 29.77 837 24.72 -6.6 20.2 65 -12.2 10.1 0
10:25 1008 29.77 837 24.72 -6.6 20.2 65 -12.2 10.1 0
10:26 1008 29.77 837 24.72 -6.5 20.3 64 -12.3 9.9 0
10:27 1008 29.77 837 24.72 -6.5 20.4 63 -12.3 9.8 0
10:28 1008 29.77 837 24.72 -6.4 20.5 63 -12.3 9.9 0
10:29 1008 29.77 837 24.72 -6.4 20.5 63 -12.2 10 0
10:30 1008 29.77 837 24.72 -6.3 20.6 63 -12.2 10 0
10:31 1008 29.77 837 24.72 -6.2 20.8 62 -12.3 9.9 0
10:32 1008 29.77 837 24.72 -6.2 20.9 62 -12.3 9.8 0
10:33 1008 29.77 837 24.72 -6.1 21 62 -12.3 9.8 0
10:34 1008 29.77 837 24.72 -6 21.2 61 -12.3 9.8 0
10:35 1008 29.77 837 24.72 -5.8 21.5 60 -12.3 9.8 0
10:36 1008 29.77 837 24.72 -5.7 21.8 60 -12.3 9.9 0
10:37 1008 29.77 837 24.72 -5.6 21.9 60 -12.3 9.9 0
10:38 1008 29.77 837 24.72 -5.5 22.1 59 -12.2 10 0
10:39 1008 29.77 837 24.72 -5.4 22.3 60 -12 10.4 0
10:40 1008 29.77 837 24.72 -5.3 22.5 60 -11.8 10.7 0
10:41 1008 29.77 837 24.72 -5.2 22.6 60 -11.8 10.7 0
10:42 1008 29.77 837 24.72 -5.1 22.7 60 -11.7 11 0
10:43 1008 29.77 837 24.72 -5.1 22.9 60 -11.6 11.1 0
10:44 1008 29.77 837 24.72 -5 22.9 59 -11.8 10.8 0
10:45 1008 29.77 837 24.72 -5 23 61 -11.5 11.3 0
10:46 1008 29.77 837 24.72 -5 23 60 -11.6 11 0
10:47 1008 29.77 837 24.72 -4.9 23.1 59 -11.8 10.8 0
10:48 1008 29.77 837 24.72 -4.9 23.2 59 -11.7 10.9 0
10:49 1008 29.77 837 24.72 -4.8 23.3 59 -11.7 10.9 0
10:50 1008 29.77 837 24.72 -4.8 23.4 58 -11.9 10.5 0
10:51 1008 29.77 837 24.72 -4.8 23.4 59 -11.7 11 0
10:52 1007 29.74 837 24.72 -4.8 23.4 59 -11.7 10.9 0
10:53 1007 29.74 837 24.72 -4.8 23.3 60 -11.5 11.2 0
10:54 1008 29.77 837 24.72 -4.9 23.3 58 -11.8 10.7 0
10:55 1008 29.77 837 24.72 -4.8 23.3 58 -12 10.5 0
10:56 1008 29.77 837 24.72 -4.7 23.5 57 -11.9 10.6 0
10:57 1008 29.77 837 24.72 -4.6 23.8 55 -12.2 10 0
10:58 1008 29.77 837 24.72 -4.5 23.9 56 -12.1 10.3 0
10:59 1008 29.77 837 24.72 -4.4 24 55 -12.1 10.2 0
11:00 1008 29.77 837 24.72 -4.3 24.3 55 -12.2 10.1 0
11:01 1007 29.74 837 24.72 -4.2 24.4 55 -12 10.4 0
11:02 1008 29.77 837 24.72 -4.2 24.5 54 -12.1 10.2 0
11:03 1008 29.77 837 24.72 -4.1 24.6 54 -12.1 10.3 0
11:04 1008 29.77 837 24.72 -4.1 24.7 53 -12.2 10 0
11:05 1007 29.74 837 24.72 -4 24.8 55 -11.9 10.6 0
11:06 1007 29.74 837 24.72 -4 24.7 55 -11.8 10.7 0
11:07 1008 29.77 837 24.72 -4 24.9 55 -11.7 10.9 0
11:08 1007 29.74 837 24.72 -4 24.9 54 -12 10.4 0
11:09 1008 29.77 837 24.72 -4 24.8 55 -11.8 10.7 0
11:10 1008 29.77 837 24.72 -3.9 25 55 -11.8 10.8 0
11:11 1008 29.77 837 24.72 -3.8 25.2 55 -11.7 11 0
11:12 1008 29.77 837 24.72 -3.6 25.5 54 -11.5 11.3 0
11:13 1008 29.77 837 24.72 -3.4 25.9 54 -11.5 11.4 0
11:14 1008 29.77 837 24.72 -3.3 26.1 53 -11.6 11.1 0
11:15 1008 29.77 837 24.72 -3.3 26 52 -11.8 10.8 0
11:16 1008 29.77 837 24.72 -3.5 25.7 54 -11.5 11.3 0
11:17 1008 29.77 837 24.72 -3.5 25.7 54 -11.5 11.3 0
11:18 1008 29.77 837 24.72 -3.6 25.6 54 -11.5 11.3 0
11:19 1008 29.77 837 24.72 -3.6 25.6 56 -11.2 11.8 0
11:20 1008 29.77 837 24.72 -3.5 25.7 55 -11.3 11.7 0
11:21 1008 29.77 837 24.72 -3.2 26.2 53 -11.4 11.5 0
11:22 1008 29.77 837 24.72 -2.7 27.2 52 -11.3 11.6 0
11:23 1008 29.77 837 24.72 -2 28.4 49 -11.2 11.8 0
11:24 1008 29.77 837 24.72 -1.2 29.9 47 -11.2 11.9 0
11:25 1008 29.77 837 24.72 -0.4 31.3 44 -11.3 11.6 0
11:26 1008 29.77 837 24.72 0.2 32.3 41 -11.5 11.3 0
11:27 1008 29.77 837 24.72 0.6 33.1 40 -11.6 11.1 0
11:28 1008 29.77 837 24.72 1.1 33.9 39 -11.4 11.4 0
11:29 1008 29.77 837 24.72 1.6 34.9 38 -11.3 11.6 0
11:30 1008 29.77 837 24.72 2 35.7 37 -11.4 11.6 0
11:31 1008 29.77 837 24.72 2.7 36.8 34 -11.6 11.1 0
11:32 1008 29.77 837 24.72 3.2 37.8 33 -11.7 11 0
11:33 1008 29.77 837 24.72 3.2 37.8 33 -11.6 11.1 0
11:34 1008 29.77 837 24.72 3.4 38.1 32 -12 10.4 0
11:35 1008 29.77 837 24.72 3.3 37.9 31 -12.1 10.2 0
11:36 1008 29.77 837 24.72 2.9 37.3 33 -12 10.5 0
11:37 1008 29.77 837 24.72 2 35.7 35 -11.8 10.8 0
11:38 1008 29.77 837 24.72 1.2 34.1 37 -11.9 10.6 0
11:39 1007 29.74 837 24.72 0.4 32.6 42 -11.3 11.7 0
11:40 1007 29.74 837 24.72 -0.2 31.6 42 -11.6 11 0
11:41 1007 29.74 837 24.72 -0.7 30.8 45 -11.1 12 0
11:42 1008 29.77 837 24.72 -1.1 30.1 46 -11.3 11.6 0
11:43 1008 29.77 837 24.72 -1.4 29.4 48 -11.1 12 0
11:44 1008 29.77 837 24.72 -1.7 29 50 -10.9 12.4 0
11:45 1008 29.77 837 24.72 -1.9 28.6 49 -11.1 11.9 0
11:46 1008 29.77 837 24.72 -2.1 28.2 50 -11.3 11.7 0
11:47 1008 29.77 837 24.72 -2.2 28 46 -12.4 9.7 0
11:48 1008 29.77 837 24.72 -2.1 28.3 46 -12.1 10.2 0
11:49 1008 29.77 837 24.72 -2 28.5 45 -12.3 9.9 0
11:50 1008 29.77 837 24.72 -1.9 28.6 47 -11.8 10.8 0
11:51 1008 29.77 837 24.72 -1.9 28.6 48 -11.5 11.4 0
11:52 1008 29.77 837 24.72 -1.9 28.6 50 -11 12.2 0
11:53 1008 29.77 837 24.72 -2 28.4 47 -11.8 10.8 0
11:54 1008 29.77 837 24.72 -2.1 28.3 51 -10.8 12.5 0
11:55 1008 29.77 837 24.72 -2.1 28.2 53 -10.6 13 0
11:56 1008 29.77 837 24.72 -2.2 28.1 53 -10.4 13.2 0
11:57 1008 29.77 837 24.72 -2.2 28 55 -10 13.9 0
11:58 1008 29.77 837 24.72 -2.1 28.2 55 -10 14 0
11:59 1008 29.77 837 24.72 -2 28.4 55 -9.9 14.2 0
12:00 1008 29.77 837 24.72 -1.9 28.6 55 -9.7 14.5 0
12:01 1008 29.77 837 24.72 -1.8 28.7 56 -9.6 14.8 0
12:02 1008 29.77 837 24.72 -1.8 28.7 56 -9.4 15 0
12:03 1007 29.74 837 24.72 -1.9 28.5 57 -9.3 15.2 0
12:04 1007 29.74 837 24.72 -2.3 27.8 60 -9.2 15.5 0
12:05 1007 29.74 837 24.72 -2.6 27.2 62 -8.9 16 0
12:06 1007 29.74 837 24.72 -2.8 27 60 -9.6 14.8 0
12:07 1007 29.74 837 24.72 -3 26.6 59 -10 14.1 0
12:08 1007 29.74 837 24.72 -3.1 26.4 60 -9.9 14.2 0
12:09 1007 29.74 837 24.72 -3.1 26.4 61 -9.6 14.6 0
12:10 1007 29.74 837 24.72 -2.9 26.8 61 -9.3 15.2 0
12:11 1007 29.74 837 24.72 -2.8 27 60 -9.4 15.1 0
12:12 1007 29.74 837 24.72 -2.7 27.2 60 -9.3 15.2 0
12:13 1007 29.74 837 24.72 -2.7 27.1 60 -9.5 14.9 0
12:14 1007 29.74 837 24.72 -2.8 27 59 -9.6 14.7 0
12:15 1007 29.74 837 24.72 -2.8 27 63 -9 15.9 0
12:16 1007 29.74 837 24.72 -2.8 26.9 61 -9.3 15.3 0
12:17 1007 29.74 837 24.72 -2.9 26.8 62 -9.3 15.3 0
12:18 1007 29.74 837 24.72 -2.8 26.9 60 -9.5 14.9 0
12:19 1007 29.74 837 24.72 -2.8 27 62 -9.1 15.6 0
12:20 1007 29.74 837 24.72 -2.8 27 62 -9.1 15.6 0
12:21 1007 29.74 837 24.72 -2.8 26.9 62 -9.2 15.4 0
12:22 1007 29.74 837 24.72 -2.9 26.9 61 -9.3 15.3 0
12:23 1007 29.74 837 24.72 -2.9 26.8 63 -9 15.7 0
12:24 1007 29.74 837 24.72 -3 26.7 62 -9.2 15.4 0
12:25 1007 29.74 837 24.72 -3 26.6 64 -8.9 16 0
12:26 1007 29.74 837 24.72 -3.2 26.3 64 -9.1 15.7 0
12:27 1007 29.74 837 24.72 -3.3 26.1 64 -9.1 15.6 0
12:28 1007 29.74 837 24.72 -3.3 26.1 64 -9.1 15.5 0
12:29 1007 29.74 837 24.72 -3.3 26.1 66 -8.8 16.2 0
12:30 1007 29.74 836 24.69 -3.3 26.1 66 -8.8 16.1 0
12:31 1007 29.74 836 24.69 -3.4 25.9 67 -8.7 16.4 0
12:32 1007 29.74 836 24.69 -3.5 25.8 66 -8.8 16.1 0
12:33 1007 29.74 836 24.69 -3.6 25.5 68 -8.6 16.5 0
12:34 1007 29.74 836 24.69 -3.7 25.3 68 -8.8 16.1 0
12:35 1007 29.74 836 24.69 -3.8 25.2 68 -8.9 16.1 0
12:36 1007 29.74 836 24.69 -3.8 25.1 68 -9 15.9 0
12:37 1007 29.74 836 24.69 -3.8 25.2 68 -8.8 16.2 0
12:38 1007 29.74 836 24.69 -3.8 25.2 67 -9.1 15.5 0
12:39 1007 29.74 837 24.72 -3.8 25.2 67 -9 15.8 0
12:40 1007 29.74 837 24.72 -3.7 25.3 65 -9.4 15 0
12:41 1007 29.74 837 24.72 -3.7 25.3 65 -9.3 15.2 0
12:42 1007 29.74 836 24.69 -3.7 25.3 67 -8.9 15.9 0
12:43 1007 29.74 837 24.72 -3.6 25.6 64 -9.5 15 0
12:44 1007 29.74 836 24.69 -3.5 25.6 65 -9.2 15.5 0
12:45 1007 29.74 836 24.69 -3.4 25.8 64 -9.2 15.4 0
12:46 1007 29.74 836 24.69 -3.3 26 63 -9.3 15.2 0
12:47 1007 29.74 837 24.72 -3.2 26.2 63 -9.3 15.3 0
12:48 1007 29.74 836 24.69 -3.2 26.2 64 -9.1 15.6 0
12:49 1007 29.74 836 24.69 -3.2 26.3 64 -9 15.8 0
12:50 1007 29.74 837 24.72 -3 26.6 62 -9.2 15.4 0
12:51 1007 29.74 837 24.72 -2.7 27.1 61 -9.3 15.3 0
12:52 1007 29.74 837 24.72 -2.7 27.2 63 -8.8 16.1 0
12:53 1007 29.74 837 24.72 -2.8 27 62 -9 15.8 0
12:54 1007 29.74 836 24.69 -2.8 27 63 -8.9 15.9 0
12:55 1007 29.74 836 24.69 -2.9 26.7 64 -8.7 16.3 0
12:56 1007 29.74 836 24.69 -2.9 26.7 64 -8.8 16.2 0
12:57 1007 29.74 836 24.69 -2.9 26.7 64 -8.7 16.3 0
12:58 1007 29.74 836 24.69 -2.9 26.7 63 -9 15.8 0
12:59 1007 29.74 836 24.69 -3 26.6 64 -8.9 16 0
13:00 1007 29.74 836 24.69 -3.1 26.4 64 -9 15.9 0
13:01 1007 29.74 836 24.69 -3.1 26.4 64 -9.1 15.6 0
13:02 1007 29.74 836 24.69 -3.1 26.4 63 -9.2 15.5 0
13:03 1007 29.74 836 24.69 -3.1 26.4 62 -9.3 15.2 0
13:04 1007 29.74 836 24.69 -3.1 26.3 63 -9.1 15.6 0
13:05 1007 29.74 836 24.69 -3.1 26.5 62 -9.4 15.1 0
13:06 1007 29.74 836 24.69 -3.1 26.5 62 -9.3 15.3 0
13:07 1007 29.74 836 24.69 -3.1 26.5 61 -9.5 14.9 0
13:08 1007 29.74 836 24.69 -3 26.6 62 -9.3 15.2 0
13:09 1007 29.74 836 24.69 -2.9 26.8 61 -9.4 15.2 0
13:10 1007 29.74 836 24.69 -2.9 26.8 61 -9.3 15.2 0
13:11 1007 29.74 836 24.69 -2.9 26.8 61 -9.5 14.9 0
13:12 1007 29.74 836 24.69 -2.8 26.9 63 -8.8 16.1 0
13:13 1007 29.74 836 24.69 -2.9 26.8 61 -9.4 15.1 0
13:14 1007 29.74 836 24.69 -3 26.7 61 -9.4 15.1 0
13:15 1007 29.74 836 24.69 -3.1 26.5 61 -9.6 14.8 0
13:16 1007 29.74 836 24.69 -3.1 26.4 61 -9.5 14.8 0
13:17 1007 29.74 836 24.69 -3.1 26.4 61 -9.6 14.7 0
13:18 1007 29.74 836 24.69 -3.1 26.5 61 -9.6 14.8 0
13:19 1007 29.74 836 24.69 -3 26.6 61 -9.4 15.1 0
13:20 1007 29.74 836 24.69 -3 26.6 62 -9.4 15.1 0
13:21 1007 29.74 836 24.69 -2.9 26.8 61 -9.5 14.9 0
13:22 1007 29.74 836 24.69 -2.8 26.9 59 -9.7 14.5 0
13:23 1007 29.74 836 24.69 -3 26.7 62 -9.3 15.2 0
13:24 1007 29.74 836 24.69 -3 26.6 64 -8.9 15.9 0
13:25 1007 29.74 836 24.69 -3 26.6 61 -9.4 15 0
13:26 1007 29.74 836 24.69 -3 26.6 62 -9.3 15.2 0
13:27 1007 29.74 836 24.69 -3 26.6 61 -9.5 15 0
13:28 1007 29.74 836 24.69 -3 26.5 61 -9.5 15 0
13:29 1007 29.74 836 24.69 -3.1 26.4 62 -9.5 15 0
13:30 1007 29.74 836 24.69 -3.2 26.2 61 -9.6 14.7 0
13:31 1007 29.74 836 24.69 -3.2 26.3 63 -9.4 15.2 0
13:32 1007 29.74 836 24.69 -3 26.6 61 -9.5 14.9 0
13:33 1007 29.74 836 24.69 -2.9 26.8 61 -9.5 15 0
13:34 1007 29.74 836 24.69 -2.7 27.1 59 -9.6 14.7 0
13:35 1007 29.74 836 24.69 -2.5 27.5 56 -10.1 13.9 0
13:36 1007 29.74 836 24.69 -2.4 27.7 57 -9.7 14.5 0
13:37 1007 29.74 836 24.69 -2.3 27.9 58 -9.6 14.8 0
13:38 1007 29.74 836 24.69 -2.2 28 58 -9.3 15.2 0
13:39 1007 29.74 836 24.69 -2.1 28.2 58 -9.3 15.3 0
13:40 1007 29.74 836 24.69 -2 28.3 57 -9.5 14.9 0
13:41 1007 29.74 836 24.69 -2 28.4 56 -9.6 14.8 0
13:42 1007 29.74 836 24.69 -2 28.4 57 -9.4 15 0
13:43 1007 29.74 836 24.69 -1.9 28.5 57 -9.4 15 0
13:44 1007 29.74 836 24.69 -1.9 28.5 56 -9.6 14.8 0
13:45 1007 29.74 836 24.69 -2 28.5 57 -9.4 15 0
13:46 1007 29.74 836 24.69 -2 28.4 57 -9.5 15 0
13:47 1007 29.74 836 24.69 -2 28.3 58 -9.2 15.4 0
13:48 1007 29.74 836 24.69 -2.1 28.1 59 -9.1 15.6 0
13:49 1007 29.74 836 24.69 -2.2 28 58 -9.5 15 0
13:50 1007 29.74 836 24.69 -2.3 27.9 58 -9.5 14.8 0
13:51 1007 29.74 836 24.69 -2.3 27.8 57 -9.7 14.5 0
13:52 1007 29.74 836 24.69 -2.4 27.8 57 -9.7 14.5 0
13:53 1007 29.74 836 24.69 -2.4 27.7 58 -9.6 14.8 0
13:54 1007 29.74 836 24.69 -2.4 27.6 58 -9.7 14.5 0
13:55 1007 29.74 836 24.69 -2.4 27.8 57 -9.8 14.4 0
13:56 1007 29.74 836 24.69 -2.2 28 56 -9.9 14.2 0
13:57 1007 29.74 836 24.69 -2.1 28.2 57 -9.6 14.8 0
13:58 1007 29.74 836 24.69 -2.1 28.2 56 -9.7 14.5 0
13:59 1007 29.74 836 24.69 -2 28.4 55 -9.9 14.2 0
14:00 1007 29.74 836 24.69 -2 28.4 55 -9.9 14.1 0
14:01 1007 29.74 836 24.69 -2.1 28.2 54 -10.2 13.6 0
14:02 1007 29.74 836 24.69 -2.2 28 54 -10.3 13.5 0
14:03 1007 29.74 836 24.69 -2.3 27.8 55 -10.1 13.9 0
14:04 1007 29.74 836 24.69 -2.4 27.6 57 -9.8 14.3 0
14:05 1007 29.74 836 24.69 -2.6 27.4 56 -10.2 13.6 0
14:06 1007 29.74 836 24.69 -2.7 27.1 57 -10 14 0
14:07 1007 29.74 836 24.69 -2.7 27.1 58 -10 14 0
14:08 1007 29.74 836 24.69 -2.9 26.8 59 -9.9 14.2 0
14:09 1007 29.74 836 24.69 -3.1 26.5 59 -9.9 14.2 0
14:10 1007 29.74 836 24.69 -3.2 26.2 60 -9.9 14.2 0
14:11 1007 29.74 836 24.69 -3.4 25.9 62 -9.8 14.4 0
14:12 1007 29.74 836 24.69 -3.5 25.8 62 -9.7 14.5 0
14:13 1007 29.74 836 24.69 -3.6 25.6 62 -9.8 14.4 0
14:14 1007 29.74 836 24.69 -3.7 25.4 64 -9.6 14.8 0
14:15 1007 29.74 836 24.69 -3.8 25.1 65 -9.4 15 0
14:16 1007 29.74 836 24.69 -3.9 24.9 66 -9.4 15 0
14:17 1007 29.74 836 24.69 -4.1 24.7 64 -9.8 14.3 0
14:18 1007 29.74 836 24.69 -4.2 24.5 61 -10.6 12.9 0
14:19 1007 29.74 836 24.69 -4.1 24.6 64 -9.9 14.2 0
14:20 1007 29.74 836 24.69 -4.2 24.4 64 -10.1 13.8 0
14:21 1007 29.74 836 24.69 -4.3 24.3 63 -10.3 13.5 0
14:22 1007 29.74 836 24.69 -4.3 24.3 63 -10.3 13.5 0
14:23 1007 29.74 836 24.69 -4.3 24.3 63 -10.2 13.6 0
14:24 1007 29.74 836 24.69 -4.3 24.3 63 -10.3 13.4 0
14:25 1007 29.74 836 24.69 -4.3 24.3 64 -10 14 0
14:26 1007 29.74 836 24.69 -4.3 24.3 64 -10.1 13.9 0
14:27 1007 29.74 836 24.69 -4.3 24.2 64 -10.1 13.8 0
14:28 1007 29.74 836 24.69 -4.3 24.2 64 -10.1 13.9 0
14:29 1007 29.74 836 24.69 -4.3 24.3 64 -10.1 13.8 0
14:30 1007 29.74 836 24.69 -4.3 24.3 62 -10.6 13 0
14:31 1007 29.74 836 24.69 -4.2 24.4 61 -10.7 12.8 0
14:32 1007 29.74 836 24.69 -4.3 24.3 58 -11.4 11.5 0
14:33 1007 29.74 836 24.69 -4.2 24.5 54 -12.1 10.2 0
14:34 1007 29.74 836 24.69 -4.1 24.7 55 -11.8 10.7 0
14:35 1007 29.74 836 24.69 -4 24.7 54 -12 10.4 0
14:36 1007 29.74 836 24.69 -3.9 24.9 55 -11.8 10.8 0
14:37 1007 29.74 836 24.69 -3.9 24.9 54 -12 10.4 0
14:38 1007 29.74 836 24.69 -3.9 24.9 53 -12.2 10 0
14:39 1007 29.74 836 24.69 -3.9 24.9 54 -11.9 10.6 0
14:40 1007 29.74 836 24.69 -4 24.8 54 -11.9 10.6 0
14:41 1007 29.74 836 24.69 -4 24.8 53 -12.2 10 0
14:42 1007 29.74 836 24.69 -4 24.9 53 -12.2 10.1 0
14:43 1007 29.74 836 24.69 -4 24.8 53 -12.3 9.8 0
14:44 1007 29.74 836 24.69 -4 24.7 52 -12.6 9.3 0
14:45 1007 29.74 836 24.69 -4 24.8 52 -12.4 9.7 0
14:46 1007 29.74 836 24.69 -4.1 24.7 54 -12.2 10.1 0
14:47 1007 29.74 836 24.69 -4.1 24.5 53 -12.4 9.6 0
14:48 1007 29.74 836 24.69 -4.2 24.5 53 -12.4 9.6 0
14:49 1007 29.74 836 24.69 -4.2 24.4 53 -12.5 9.6 0
14:50 1007 29.74 836 24.69 -4.2 24.4 53 -12.4 9.7 0
14:51 1007 29.74 836 24.69 -4.2 24.4 52 -12.6 9.3 0
14:52 1007 29.74 836 24.69 -4.3 24.3 53 -12.4 9.6 0
14:53 1007 29.74 836 24.69 -4.2 24.4 53 -12.4 9.7 0
14:54 1007 29.74 836 24.69 -4.3 24.2 52 -12.7 9.2 0
14:55 1007 29.74 836 24.69 -4.3 24.2 53 -12.6 9.3 0
14:56 1007 29.74 836 24.69 -4.3 24.2 52 -12.7 9.1 0
14:57 1007 29.74 836 24.69 -4.3 24.3 53 -12.5 9.4 0
14:58 1007 29.74 836 24.69 -4.3 24.2 53 -12.7 9.2 0
14:59 1007 29.74 836 24.69 -4.3 24.3 51 -12.9 8.8 0
15:00 1007 29.74 836 24.69 -4.1 24.6 52 -12.6 9.4 0
15:01 1007 29.74 836 24.69 -4.1 24.6 52 -12.6 9.3 0
15:02 1007 29.74 836 24.69 -4.2 24.5 53 -12.4 9.6 0
15:03 1007 29.74 836 24.69 -4.1 24.6 53 -12.3 9.9 0
15:04 1007 29.74 836 24.69 -4.1 24.6 54 -12 10.4 0
15:05 1007 29.74 836 24.69 -4.2 24.5 53 -12.3 9.9 0
15:06 1007 29.74 836 24.69 -4.3 24.3 54 -12.3 9.8 0
15:07 1007 29.74 836 24.69 -4.3 24.2 54 -12.4 9.6 0
15:08 1007 29.74 836 24.69 -4.4 24 53 -12.5 9.5 0
15:09 1007 29.74 836 24.69 -4.5 23.9 53 -12.7 9.2 0
15:10 1007 29.74 836 24.69 -4.6 23.8 54 -12.6 9.3 0
15:11 1007 29.74 836 24.69 -4.6 23.7 54 -12.6 9.3 0
15:12 1007 29.74 836 24.69 -4.6 23.7 54 -12.6 9.3 0
15:13 1007 29.74 836 24.69 -4.6 23.8 55 -12.4 9.7 0
15:14 1007 29.74 836 24.69 -4.6 23.8 54 -12.6 9.4 0
15:15 1007 29.74 836 24.69 -4.6 23.8 53 -12.7 9.1 0
15:16 1007 29.74 836 24.69 -4.5 23.9 52 -12.8 8.9 0
15:17 1007 29.74 836 24.69 -4.4 24 52 -12.9 8.8 0
15:18 1007 29.74 836 24.69 -4.4 24.1 52 -12.7 9.1 0
15:19 1007 29.74 836 24.69 -4.4 24.1 52 -12.7 9.1 0
15:20 1007 29.74 836 24.69 -4.4 24 53 -12.7 9.1 0
15:21 1007 29.74 836 24.69 -4.5 23.9 53 -12.8 9 0
15:22 1007 29.74 836 24.69 -4.5 23.9 53 -12.7 9.1 0
15:23 1007 29.74 836 24.69 -4.5 23.9 52 -13 8.6 0
15:24 1007 29.74 836 24.69 -4.4 24.2 52 -12.9 8.8 0
15:25 1007 29.74 836 24.69 -4.2 24.4 51 -12.9 8.7 0
15:26 1007 29.74 836 24.69 -4.1 24.6 51 -12.9 8.7 0
15:27 1007 29.74 836 24.69 -4 24.8 49 -13.2 8.3 0
15:28 1007 29.74 836 24.69 -3.8 25.2 49 -13 8.6 0
15:29 1007 29.74 836 24.69 -3.7 25.4 50 -12.7 9.2 0
15:30 1007 29.74 836 24.69 -3.8 25.2 49 -13.1 8.5 0
15:31 1007 29.74 836 24.69 -3.9 25.1 51 -12.7 9.1 0
15:32 1007 29.74 836 24.69 -4 24.9 52 -12.5 9.5 0
15:33 1007 29.74 836 24.69 -4 24.8 52 -12.4 9.7 0
15:34 1007 29.74 836 24.69 -3.9 24.9 52 -12.4 9.7 0
15:35 1007 29.74 836 24.69 -3.9 25 52 -12.3 9.9 0
15:36 1007 29.74 836 24.69 -3.9 25 51 -12.6 9.4 0
15:37 1007 29.74 836 24.69 -3.9 25.1 51 -12.6 9.3 0
15:38 1007 29.74 836 24.69 -3.8 25.2 52 -12.2 10 0
15:39 1007 29.74 836 24.69 -3.8 25.2 52 -12.3 9.9 0
15:40 1007 29.74 836 24.69 -3.8 25.2 53 -12 10.5 0
15:41 1007 29.74 836 24.69 -3.7 25.3 53 -12 10.4 0
15:42 1007 29.74 836 24.69 -3.6 25.5 49 -12.8 9 0
15:43 1007 29.74 836 24.69 -3.4 25.8 49 -12.8 9 0
15:44 1007 29.74 836 24.69 -3.2 26.3 48 -12.7 9.2 0
15:45 1007 29.74 836 24.69 -2.9 26.7 48 -12.5 9.4 0
15:46 1007 29.74 836 24.69 -2.8 27 47 -12.5 9.5 0
15:47 1007 29.74 836 24.69 -2.6 27.3 47 -12.6 9.4 0
15:48 1007 29.74 836 24.69 -2.5 27.5 46 -12.7 9.1 0
15:49 1007 29.74 836 24.69 -2.3 27.9 44 -13.1 8.5 0
15:50 1007 29.74 836 24.69 -2.2 28 44 -12.8 9 0
15:51 1007 29.74 836 24.69 -2.2 28.1 45 -12.6 9.3 0
15:52 1007 29.74 836 24.69 -2.3 27.9 45 -12.6 9.3 0
15:53 1007 29.74 836 24.69 -2.5 27.6 49 -11.9 10.6 0
15:54 1007 29.74 836 24.69 -2.6 27.2 48 -12.3 9.8 0
15:55 1007 29.74 836 24.69 -2.8 27 49 -12.1 10.3 0
15:56 1007 29.74 836 24.69 -2.9 26.9 49 -12.1 10.2 0
15:57 1007 29.74 836 24.69 -3 26.6 50 -12 10.3 0
15:58 1007 29.74 836 24.69 -3 26.6 49 -12.2 10.1 0
15:59 1007 29.74 836 24.69 -2.9 26.7 48 -12.5 9.5 0
16:00 1007 29.74 836 24.69 -2.8 26.9 48 -12.4 9.7 0
16:01 1007 29.74 836 24.69 -2.8 26.9 49 -12.2 10 0
16:02 1007 29.74 836 24.69 -2.8 26.9 48 -12.3 9.9 0
16:03 1007 29.74 836 24.69 -2.8 26.9 49 -12 10.4 0
16:04 1007 29.74 836 24.69 -2.9 26.8 49 -12.1 10.2 0
16:05 1007 29.74 836 24.69 -3 26.6 49 -12.2 10.1 0
16:06 1007 29.74 836 24.69 -3.2 26.3 50 -12.2 10 0
16:07 1007 29.74 836 24.69 -3.3 26.1 49 -12.5 9.4 0
16:08 1007 29.74 836 24.69 -3.3 26 50 -12.4 9.7 0
16:09 1007 29.74 836 24.69 -3.4 26 49 -12.5 9.5 0
16:10 1007 29.74 836 24.69 -3.5 25.7 50 -12.6 9.3 0
16:11 1007 29.74 836 24.69 -3.6 25.6 49 -12.7 9.1 0
16:12 1007 29.74 836 24.69 -3.7 25.4 50 -12.6 9.4 0
16:13 1007 29.74 836 24.69 -3.7 25.3 50 -12.7 9.2 0
16:14 1007 29.74 836 24.69 -3.7 25.3 50 -12.8 9 0
16:15 1007 29.74 836 24.69 -3.7 25.4 49 -12.8 8.9 0
16:16 1007 29.74 836 24.69 -3.7 25.4 50 -12.7 9.2 0
16:17 1007 29.74 836 24.69 -3.8 25.1 50 -12.7 9.1 0
16:18 1007 29.74 836 24.69 -3.9 25 49 -13 8.6 0
16:19 1007 29.74 836 24.69 -3.9 25 49 -13 8.6 0
16:20 1007 29.74 836 24.69 -3.9 25 49 -13 8.6 0
16:21 1007 29.74 836 24.69 -3.9 25 49 -13.1 8.5 0
16:22 1007 29.74 836 24.69 -3.8 25.1 49 -13.2 8.3 0
16:23 1007 29.74 836 24.69 -3.9 24.9 48 -13.3 8.1 0
16:24 1007 29.74 836 24.69 -3.9 25 47 -13.5 7.7 0
16:25 1007 29.74 836 24.69 -3.7 25.3 47 -13.4 7.8 0
16:26 1007 29.74 836 24.69 -3.6 25.5 46 -13.6 7.6 0
16:27 1007 29.74 836 24.69 -3.5 25.7 46 -13.6 7.5 0
16:28 1007 29.74 836 24.69 -3.4 25.9 45 -13.8 7.2 0
16:29 1007 29.74 836 24.69 -3.3 26 45 -13.8 7.2 0
16:30 1007 29.74 836 24.69 -3.3 26.1 45 -13.5 7.6 0
16:31 1007 29.74 836 24.69 -3.3 26.1 46 -13.4 7.9 0
16:32 1007 29.74 836 24.69 -3.4 26 46 -13.4 7.9 0
16:33 1007 29.74 836 24.69 -3.4 25.8 47 -13.2 8.2 0
16:34 1007 29.74 836 24.69 -3.4 25.9 46 -13.4 7.9 0
16:35 1007 29.74 836 24.69 -3.3 26 46 -13.3 8.1 0
16:36 1007 29.74 836 24.69 -3.3 26 46 -13.4 7.9 0
16:37 1007 29.74 836 24.69 -3.3 26.1 45 -13.6 7.5 0
16:38 1007 29.74 836 24.69 -3.1 26.4 45 -13.5 7.6 0
16:39 1007 29.74 836 24.69 -3.1 26.5 44 -13.6 7.6 0
16:40 1007 29.74 836 24.69 -3 26.5 44 -13.6 7.6 0
16:41 1007 29.74 836 24.69 -3 26.6 44 -13.5 7.6 0
16:42 1007 29.74 836 24.69 -3 26.6 45 -13.5 7.8 0
16:43 1007 29.74 836 24.69 -3.1 26.5 45 -13.3 8 0
16:44 1007 29.74 836 24.69 -3.2 26.3 45 -13.5 7.6 0
16:45 1007 29.74 836 24.69 -3.3 26.1 45 -13.6 7.6 0
16:46 1007 29.74 836 24.69 -3.4 26 46 -13.3 8 0
16:47 1007 29.74 836 24.69 -3.5 25.6 48 -13.2 8.3 0
16:48 1007 29.74 836 24.69 -3.8 25.1 49 -13.1 8.4 0
16:49 1007 29.74 836 24.69 -4.2 24.5 51 -12.9 8.8 0
16:50 1007 29.74 836 24.69 -4.4 24.1 52 -12.9 8.7 0
16:51 1007 29.74 836 24.69 -4.5 23.9 52 -12.8 8.9 0
16:52 1007 29.74 836 24.69 -4.6 23.8 52 -13 8.6 0
16:53 1007 29.74 836 24.69 -4.8 23.4 53 -13.1 8.5 0
16:54 1007 29.74 836 24.69 -4.8 23.3 53 -13.1 8.5 0
16:55 1007 29.74 836 24.69 -4.6 23.7 52 -13.1 8.4 0
16:56 1007 29.74 836 24.69 -4.5 23.9 52 -13 8.7 0
16:57 1007 29.74 836 24.69 -4.3 24.2 51 -13 8.6 0
16:58 1007 29.74 836 24.69 -4.2 24.4 51 -12.9 8.8 0
16:59 1007 29.74 836 24.69 -4.2 24.4 51 -12.9 8.8 0
17:00 1007 29.74 836 24.69 -4.2 24.5 51 -12.8 9 0
17:01 1007 29.74 836 24.69 -4.4 24.1 52 -13 8.7 0
17:02 1007 29.74 836 24.69 -4.8 23.4 53 -12.9 8.8 0
17:03 1007 29.74 836 24.69 -4.9 23.2 54 -12.8 9 0
17:04 1007 29.74 836 24.69 -4.8 23.4 54 -12.8 8.9 0
17:05 1007 29.74 836 24.69 -4.6 23.6 53 -12.9 8.8 0
17:06 1007 29.74 836 24.69 -4.5 24 52 -12.9 8.8 0
17:07 1007 29.74 836 24.69 -4.3 24.2 51 -13 8.7 0
17:08 1007 29.74 836 24.69 -4.1 24.6 51 -13 8.7 0
17:09 1007 29.74 836 24.69 -4 24.8 50 -13 8.7 0
17:10 1007 29.74 836 24.69 -4 24.9 50 -12.8 8.9 0
17:11 1007 29.74 836 24.69 -4.1 24.7 51 -12.8 8.9 0
17:12 1007 29.74 836 24.69 -4.1 24.6 52 -12.7 9.1 0
17:13 1007 29.74 836 24.69 -4.2 24.4 52 -12.8 9 0
17:14 1007 29.74 836 24.69 -4.2 24.4 52 -12.7 9.1 0
17:15 1007 29.74 836 24.69 -4.3 24.3 52 -12.7 9.2 0
17:16 1007 29.74 836 24.69 -4.2 24.4 52 -12.8 9 0
17:17 1007 29.74 836 24.69 -4.2 24.4 52 -12.8 9 0
17:18 1007 29.74 836 24.69 -4.2 24.4 52 -12.8 9 0
17:19 1007 29.74 836 24.69 -4.2 24.4 52 -12.8 9 0
17:20 1007 29.74 836 24.69 -4.2 24.4 52 -12.8 9 0
17:21 1007 29.74 836 24.69 -4.3 24.3 52 -12.8 9 0
17:22 1007 29.74 836 24.69 -4.2 24.5 51 -12.8 9 0
17:23 1007 29.74 836 24.69 -4.2 24.4 51 -12.8 8.9 0
17:24 1007 29.74 836 24.69 -4.5 24 52 -12.8 8.9 0
17:25 1007 29.74 836 24.69 -4.7 23.6 53 -12.9 8.7 0
17:26 1007 29.74 836 24.69 -4.9 23.2 54 -12.9 8.7 0
17:27 1007 29.74 836 24.69 -4.9 23.1 54 -13 8.7 0
17:28 1007 29.74 836 24.69 -4.9 23.2 54 -12.9 8.7 0
17:29 1007 29.74 836 24.69 -4.9 23.2 53 -13 8.7 0
17:30 1007 29.74 836 24.69 -4.8 23.4 54 -12.8 9 0
17:31 1007 29.74 836 24.69 -4.8 23.4 54 -12.8 9 0
17:32 1007 29.74 836 24.69 -4.8 23.4 53 -12.9 8.8 0
17:33 1007 29.74 836 24.69 -4.7 23.6 53 -13 8.7 0
17:34 1007 29.74 837 24.72 -4.7 23.6 52 -13 8.5 0
17:35 1007 29.74 836 24.69 -4.6 23.7 52 -13.1 8.5 0
17:36 1007 29.74 837 24.72 -4.6 23.7 52 -13.1 8.4 0
17:37 1007 29.74 837 24.72 -4.5 23.9 51 -13.1 8.3 0
17:38 1007 29.74 837 24.72 -4.4 24 51 -13.2 8.3 0
17:39 1007 29.74 837 24.72 -4.5 23.8 51 -13.2 8.2 0
17:40 1007 29.74 837 24.72 -4.6 23.7 51 -13.2 8.3 0
17:41 1007 29.74 837 24.72 -4.7 23.6 51 -13.2 8.2 0
17:42 1007 29.74 837 24.72 -4.7 23.6 51 -13.2 8.2 0
17:43 1007 29.74 837 24.72 -4.7 23.5 52 -13.2 8.2 0
17:44 1007 29.74 837 24.72 -4.7 23.5 51 -13.3 8.1 0
17:45 1007 29.74 837 24.72 -4.8 23.3 51 -13.4 7.9 0
17:46 1007 29.74 837 24.72 -4.9 23.1 51 -13.5 7.7 0
17:47 1007 29.74 837 24.72 -5.1 22.9 52 -13.4 7.9 0
17:48 1007 29.74 837 24.72 -5.1 22.8 53 -13.4 7.9 0
17:49 1007 29.74 837 24.72 -5.1 22.9 52 -13.4 7.9 0
17:50 1007 29.74 837 24.72 -4.9 23.2 52 -13.3 8 0
17:51 1007 29.74 837 24.72 -4.8 23.4 51 -13.3 8 0
17:52 1007 29.74 837 24.72 -4.6 23.7 51 -13.3 8.1 0
17:53 1007 29.74 837 24.72 -4.5 23.9 51 -13.3 8.1 0
17:54 1007 29.74 837 24.72 -4.6 23.8 51 -13.2 8.2 0
17:55 1007 29.74 837 24.72 -4.7 23.5 52 -13.2 8.3 0
17:56 1007 29.74 837 24.72 -4.9 23.3 52 -13.3 8.1 0
17:57 1007 29.74 837 24.72 -5.2 22.6 53 -13.3 8.1 0
17:58 1007 29.74 836 24.69 -5.5 22.1 54 -13.4 7.9 0
17:59 1007 29.74 837 24.72 -5.7 21.7 56 -13.2 8.2 0
18:00 1007 29.74 837 24.72 -5.7 21.7 55 -13.3 8 0
18:01 1007 29.74 837 24.72 -6 21.2 54 -13.9 6.9 0
18:02 1007 29.74 837 24.72 -6.5 20.3 57 -13.7 7.4 0
18:03 1007 29.74 837 24.72 -6.6 20.1 58 -13.5 7.6 0
18:04 1007 29.74 837 24.72 -6.6 20.1 58 -13.5 7.7 0
18:05 1007 29.74 837 24.72 -6.6 20.2 58 -13.5 7.7 0
18:06 1007 29.74 837 24.72 -6.7 20 58 -13.6 7.5 0
18:07 1007 29.74 837 24.72 -6.8 19.7 59 -13.5 7.7 0
18:08 1007 29.74 837 24.72 -7 19.5 60 -13.5 7.7 0
18:09 1007 29.74 837 24.72 -7 19.4 60 -13.5 7.7 0
18:10 1007 29.74 837 24.72 -7.1 19.2 61 -13.4 7.9 0
18:11 1007 29.74 837 24.72 -7.1 19.1 62 -13.3 8.1 0
18:12 1007 29.74 837 24.72 -7.1 19.3 61 -13.3 8 0
18:13 1007 29.74 837 24.72 -7.2 19.1 59 -13.8 7.2 0
18:14 1007 29.74 837 24.72 -7.3 18.9 60 -13.7 7.3 0
18:15 1007 29.74 837 24.72 -7.3 18.8 62 -13.4 7.8 0
18:16 1007 29.74 837 24.72 -7.3 19 59 -13.9 7 0
18:17 1007 29.74 837 24.72 -7.8 18 61 -14.1 6.7 0
18:18 1007 29.74 837 24.72 -8.2 17.3 62 -14.2 6.4 0
18:19 1007 29.74 837 24.72 -8.7 16.4 63 -14.4 6.1 0
18:20 1007 29.74 837 24.72 -9 15.8 65 -14.5 5.9 0
18:21 1007 29.74 837 24.72 -9.3 15.3 65 -14.6 5.7 0
18:22 1007 29.74 837 24.72 -9.4 15 67 -14.6 5.8 0
18:23 1007 29.74 837 24.72 -9.5 14.9 66 -14.7 5.5 0
18:24 1007 29.74 837 24.72 -9.9 14.3 67 -14.9 5.2 0
18:25 1007 29.74 837 24.72 -9.9 14.2 70 -14.3 6.3 0
18:26 1007 29.74 837 24.72 -9.5 14.9 68 -14.4 6.1 0
18:27 1007 29.74 837 24.72 -9.4 15.1 67 -14.5 6 0
18:28 1007 29.74 837 24.72 -9.2 15.5 70 -13.8 7.2 0
18:29 1007 29.74 837 24.72 -8.5 16.7 67 -13.6 7.6 0
18:30 1008 29.77 837 24.72 -7.7 18.1 64 -13.4 7.9 0
18:31 1007 29.74 837 24.72 -7.2 19.1 62 -13.2 8.2 0
18:32 1008 29.77 837 24.72 -6.8 19.7 61 -13.2 8.3 0
18:33 1008 29.77 837 24.72 -6.5 20.3 58 -13.4 7.8 0
18:34 1008 29.77 837 24.72 -6.4 20.5 59 -13.2 8.3 0
18:35 1008 29.77 837 24.72 -6.2 20.8 58 -13.2 8.3 0
18:36 1008 29.77 837 24.72 -6.1 21 57 -13.3 8.1 0
18:37 1008 29.77 837 24.72 -6 21.2 58 -13.1 8.4 0
18:38 1008 29.77 837 24.72 -5.9 21.4 57 -13.2 8.3 0
18:39 1008 29.77 837 24.72 -5.8 21.6 56 -13.3 8.1 0
18:40 1008 29.77 837 24.72 -5.8 21.5 56 -13.3 8 0
18:41 1008 29.77 837 24.72 -5.9 21.3 57 -13.1 8.3 0
18:42 1008 29.77 837 24.72 -5.8 21.6 56 -13.2 8.3 0
18:43 1008 29.77 837 24.72 -5.7 21.7 56 -13.2 8.2 0
18:44 1008 29.77 837 24.72 -5.9 21.5 56 -13.2 8.2 0
18:45 1008 29.77 837 24.72 -5.9 21.4 56 -13.2 8.2 0
18:46 1008 29.77 837 24.72 -5.9 21.3 57 -13.2 8.3 0
18:47 1008 29.77 837 24.72 -6 21.2 56 -13.4 7.8 0
18:48 1008 29.77 837 24.72 -6.5 20.3 56 -13.8 7.1 0
18:49 1008 29.77 837 24.72 -7.4 18.6 59 -14.1 6.6 0
18:50 1008 29.77 837 24.72 -8.2 17.2 62 -14.3 6.3 0
18:51 1008 29.77 837 24.72 -8.8 16.1 64 -14.4 6.1 0
18:52 1008 29.77 837 24.72 -9.2 15.4 66 -14.4 6.1 0
18:53 1008 29.77 837 24.72 -9.5 14.8 68 -14.4 6.1 0
18:54 1008 29.77 837 24.72 -9.6 14.7 68 -14.4 6.1 0
18:55 1008 29.77 837 24.72 -9.7 14.5 69 -14.4 6.1 0
18:56 1008 29.77 837 24.72 -9.7 14.5 70 -14.3 6.3 0
18:57 1008 29.77 837 24.72 -9.6 14.7 70 -14.1 6.5 0
18:58 1008 29.77 837 24.72 -9.5 14.8 71 -13.9 7 0
18:59 1008 29.77 837 24.72 -9.3 15.3 69 -13.9 6.9 0
19:00 1008 29.77 837 24.72 -9.1 15.6 69 -13.7 7.3 0
19:01 1008 29.77 837 24.72 -8.9 16 68 -13.8 7.2 0
19:02 1008 29.77 837 24.72 -8.8 16.1 68 -13.8 7.2 0
19:03 1008 29.77 837 24.72 -8.8 16.1 67 -13.8 7.1 0
19:04 1008 29.77 837 24.72 -8.9 15.9 68 -13.7 7.3 0
19:05 1008 29.77 837 24.72 -9 15.8 69 -13.7 7.3 0
19:06 1008 29.77 837 24.72 -9.1 15.6 70 -13.7 7.4 0
19:07 1008 29.77 837 24.72 -9.2 15.4 71 -13.6 7.5 0
19:08 1008 29.77 837 24.72 -9.2 15.4 71 -13.6 7.6 0
19:09 1008 29.77 837 24.72 -9.4 15.2 72 -13.5 7.6 0
19:10 1008 29.77 837 24.72 -9.4 15 73 -13.4 7.8 0
19:11 1008 29.77 837 24.72 -9.3 15.3 72 -13.4 7.9 0
19:12 1008 29.77 837 24.72 -9.2 15.5 73 -13.2 8.2 0
19:13 1008 29.77 837 24.72 -9.1 15.6 73 -13.2 8.3 0
19:14 1008 29.77 837 24.72 -9 15.9 73 -13 8.6 0
19:15 1008 29.77 837 24.72 -8.9 16.1 72 -13 8.6 0
19:16 1008 29.77 837 24.72 -8.7 16.3 72 -12.9 8.8 0
19:17 1008 29.77 837 24.72 -8.7 16.4 73 -12.7 9.1 0
19:18 1008 29.77 837 24.72 -8.7 16.4 73 -12.7 9.2 0
19:19 1008 29.77 837 24.72 -8.6 16.5 73 -12.6 9.3 0
19:20 1008 29.77 837 24.72 -8.5 16.7 73 -12.6 9.4 0
19:21 1008 29.77 837 24.72 -8.5 16.7 74 -12.3 9.8 0
19:22 1008 29.77 837 24.72 -8.4 16.9 74 -12.3 9.9 0
19:23 1008 29.77 837 24.72 -8.3 17 73 -12.3 9.9 0
19:24 1008 29.77 837 24.72 -8.2 17.2 73 -12.2 10 0
19:25 1008 29.77 837 24.72 -8.2 17.2 74 -12.1 10.2 0
19:26 1008 29.77 837 24.72 -8.2 17.2 74 -12.1 10.2 0
19:27 1008 29.77 837 24.72 -8.1 17.5 73 -12.1 10.2 0
19:28 1008 29.77 837 24.72 -7.7 18.2 71 -12 10.3 0
19:29 1008 29.77 837 24.72 -7.3 18.9 69 -12 10.4 0
19:30 1008 29.77 837 24.72 -7.3 18.9 70 -11.8 10.7 0
19:31 1008 29.77 837 24.72 -7.4 18.8 72 -11.6 11.2 0
19:32 1008 29.77 837 24.72 -7.4 18.6 73 -11.5 11.2 0
19:33 1008 29.77 837 24.72 -7.3 18.8 72 -11.6 11.1 0
19:34 1008 29.77 837 24.72 -7.4 18.7 73 -11.4 11.4 0
19:35 1008 29.77 837 24.72 -7.3 18.8 73 -11.4 11.4 0
19:36 1008 29.77 837 24.72 -7.4 18.8 73 -11.3 11.6 0
19:37 1008 29.77 837 24.72 -7.5 18.6 74 -11.3 11.7 0
19:38 1008 29.77 837 24.72 -7.6 18.4 75 -11.3 11.7 0
19:39 1008 29.77 837 24.72 -7.7 18.2 75 -11.3 11.7 0
19:40 1008 29.77 837 24.72 -7.6 18.3 74 -11.5 11.3 0
19:41 1008 29.77 837 24.72 -7.5 18.5 74 -11.3 11.6 0
19:42 1008 29.77 837 24.72 -7.6 18.3 76 -11.2 11.9 0
19:43 1008 29.77 837 24.72 -7.6 18.3 75 -11.3 11.7 0
19:44 1008 29.77 837 24.72 -7.5 18.5 75 -11.2 11.9 0
19:45 1008 29.77 837 24.72 -7.3 18.9 75 -11 12.2 0
19:46 1008 29.77 837 24.72 -7.1 19.2 74 -11 12.3 0
19:47 1008 29.77 837 24.72 -7 19.4 74 -10.9 12.4 0
19:48 1008 29.77 837 24.72 -6.9 19.6 73 -10.9 12.4 0
19:49 1008 29.77 837 24.72 -6.8 19.8 73 -10.9 12.4 0
19:50 1008 29.77 837 24.72 -6.6 20.1 71 -11.1 12 0
19:51 1008 29.77 837 24.72 -6.4 20.6 70 -10.9 12.4 0
19:52 1008 29.77 837 24.72 -6.3 20.7 69 -11 12.2 0
19:53 1008 29.77 837 24.72 -6.2 20.8 68 -11.3 11.6 0
19:54 1008 29.77 837 24.72 -6.2 20.9 69 -10.9 12.3 0
19:55 1008 29.77 837 24.72 -6.3 20.7 70 -10.9 12.4 0
19:56 1008 29.77 837 24.72 -6.3 20.6 70 -11 12.2 0
19:57 1008 29.77 837 24.72 -6.3 20.6 70 -10.9 12.3 0
19:58 1008 29.77 837 24.72 -6.4 20.5 70 -11 12.2 0
19:59 1008 29.77 837 24.72 -6.4 20.5 69 -11.2 11.9 0
20:00 1008 29.77 837 24.72 -6.3 20.7 68 -11.3 11.6 0
20:01 1008 29.77 837 24.72 -6.1 21 67 -11.2 11.8 0
20:02 1008 29.77 837 24.72 -6.1 21.1 67 -11.2 11.9 0
20:03 1008 29.77 837 24.72 -6.1 21 68 -11.1 12.1 0
20:04 1008 29.77 837 24.72 -6.2 20.9 69 -11 12.2 0
20:05 1008 29.77 837 24.72 -6.2 20.8 69 -10.9 12.3 0
20:06 1008 29.77 837 24.72 -6.3 20.6 70 -10.8 12.5 0
20:07 1008 29.77 837 24.72 -6.5 20.4 71 -10.9 12.3 0
20:08 1008 29.77 837 24.72 -6.5 20.3 71 -11 12.3 0
20:09 1008 29.77 837 24.72 -6.6 20.1 72 -10.9 12.3 0
20:10 1008 29.77 837 24.72 -6.6 20.1 70 -11.1 12 0
20:11 1008 29.77 837 24.72 -6.5 20.4 69 -11.3 11.7 0
20:12 1008 29.77 837 24.72 -6.3 20.7 68 -11.3 11.6 0
20:13 1008 29.77 837 24.72 -6.1 21 66 -11.5 11.4 0
20:14 1008 29.77 837 24.72 -5.9 21.3 65 -11.6 11.2 0
20:15 1008 29.77 837 24.72 -5.7 21.7 63 -11.7 10.9 0
20:16 1008 29.77 837 24.72 -5.5 22.1 63 -11.5 11.3 0
20:17 1008 29.77 837 24.72 -5.4 22.3 63 -11.3 11.6 0
20:18 1008 29.77 837 24.72 -5.5 22.2 65 -11 12.2 0
20:19 1008 29.77 837 24.72 -5.7 21.8 67 -10.9 12.4 0
20:20 1008 29.77 837 24.72 -5.9 21.4 68 -10.8 12.6 0
20:21 1008 29.77 837 24.72 -6.1 21.1 69 -10.8 12.6 0
20:22 1008 29.77 837 24.72 -6.1 21 70 -10.7 12.8 0
20:23 1008 29.77 837 24.72 -6.3 20.7 71 -10.6 12.9 0
20:24 1008 29.77 837 24.72 -6.3 20.6 72 -10.7 12.8 0
20:25 1008 29.77 837 24.72 -6.5 20.4 72 -10.8 12.6 0
20:26 1008 29.77 837 24.72 -6.5 20.3 72 -10.8 12.6 0
20:27 1008 29.77 837 24.72 -6.5 20.3 72 -10.7 12.7 0
20:28 1008 29.77 837 24.72 -6.6 20.2 73 -10.7 12.8 0
20:29 1008 29.77 837 24.72 -6.7 19.9 74 -10.6 13 0
20:30 1008 29.77 837 24.72 -6.7 19.9 75 -10.5 13.2 0
20:31 1008 29.77 837 24.72 -6.8 19.8 75 -10.4 13.2 0
20:32 1008 29.77 837 24.72 -6.8 19.7 75 -10.6 12.9 0
20:33 1008 29.77 837 24.72 -6.8 19.8 74 -10.7 12.7 0
20:34 1008 29.77 837 24.72 -6.6 20.1 73 -10.7 12.8 0
20:35 1008 29.77 837 24.72 -6.5 20.3 72 -10.7 12.8 0
20:36 1008 29.77 837 24.72 -6.4 20.4 73 -10.5 13.1 0
20:37 1008 29.77 837 24.72 -6.4 20.4 73 -10.5 13.1 0
20:38 1008 29.77 837 24.72 -6.5 20.3 73 -10.5 13.1 0
20:39 1008 29.77 837 24.72 -6.5 20.3 72 -10.7 12.7 0
20:40 1008 29.77 837 24.72 -6.5 20.4 71 -11 12.2 0
20:41 1008 29.77 837 24.72 -6.4 20.5 68 -11.3 11.7 0
20:42 1008 29.77 837 24.72 -6.2 20.8 68 -11.2 11.9 0
20:43 1008 29.77 838 24.75 -6.1 21.1 68 -11.1 12 0
20:44 1008 29.77 838 24.75 -6 21.3 67 -11.1 12 0
20:45 1008 29.77 838 24.75 -5.9 21.4 67 -11.1 12.1 0
20:46 1008 29.77 838 24.75 -5.8 21.5 67 -11 12.1 0
20:47 1008 29.77 838 24.75 -5.7 21.7 67 -11 12.2 0
20:48 1008 29.77 838 24.75 -5.7 21.8 67 -10.9 12.4 0
20:49 1008 29.77 838 24.75 -5.6 21.9 67 -10.8 12.5 0
20:50 1008 29.77 838 24.75 -5.6 21.9 67 -10.8 12.5 0
20:51 1008 29.77 838 24.75 -5.6 21.9 67 -10.8 12.5 0
20:52 1008 29.77 838 24.75 -5.6 22 67 -10.8 12.5 0
20:53 1008 29.77 838 24.75 -5.5 22 66 -11 12.3 0
20:54 1008 29.77 838 24.75 -5.5 22.1 66 -11 12.3 0
20:55 1008 29.77 838 24.75 -5.5 22.2 65 -11 12.2 0
20:56 1008 29.77 838 24.75 -5.4 22.3 65 -11 12.3 0
20:57 1008 29.77 838 24.75 -5.3 22.4 65 -11 12.2 0
20:58 1008 29.77 838 24.75 -5.3 22.5 63 -11.2 11.8 0
20:59 1008 29.77 838 24.75 -5.2 22.6 67 -10.4 13.3 0
21:00 1008 29.77 838 24.75 -5.3 22.5 66 -10.7 12.7 0
21:01 1008 29.77 838 24.75 -5.3 22.5 65 -10.9 12.4 0
21:02 1008 29.77 838 24.75 -5.3 22.5 66 -10.7 12.7 0
21:03 1008 29.77 838 24.75 -5.2 22.6 66 -10.7 12.7 0
21:04 1008 29.77 838 24.75 -5.2 22.6 65 -10.8 12.5 0
21:05 1008 29.77 838 24.75 -5.2 22.6 64 -10.9 12.3 0
21:06 1009 29.8 838 24.75 -5.2 22.7 65 -10.8 12.6 0
21:07 1009 29.8 838 24.75 -5.2 22.7 64 -10.9 12.4 0
21:08 1009 29.8 838 24.75 -5.1 22.7 65 -10.8 12.6 0
21:09 1009 29.8 838 24.75 -5.1 22.8 65 -10.6 12.9 0
21:10 1009 29.8 838 24.75 -5.1 22.8 66 -10.6 13 0
21:11 1009 29.8 838 24.75 -5.1 22.9 64 -10.9 12.5 0
21:12 1009 29.8 838 24.75 -5.1 22.9 64 -10.9 12.4 0
21:13 1009 29.8 838 24.75 -5 22.9 64 -10.9 12.4 0
21:14 1009 29.8 838 24.75 -5 22.9 64 -10.8 12.6 0
21:15 1009 29.8 838 24.75 -5 23 66 -10.5 13.2 0
21:16 1009 29.8 838 24.75 -5 23 69 -9.9 14.1 0
21:17 1009 29.8 838 24.75 -5 23 69 -9.9 14.2 0
21:18 1009 29.8 838 24.75 -5 23 69 -9.9 14.2 0
21:19 1009 29.8 838 24.75 -5 23.1 69 -9.8 14.3 0
21:20 1009 29.8 838 24.75 -4.9 23.1 69 -9.8 14.4 0
21:21 1009 29.8 838 24.75 -4.9 23.2 70 -9.6 14.7 0
21:22 1009 29.8 838 24.75 -5 23.1 69 -9.7 14.5 0
21:23 1009 29.8 838 24.75 -4.9 23.1 69 -9.8 14.3 0
21:24 1009 29.8 838 24.75 -5 23 69 -9.8 14.4 0
21:25 1009 29.8 838 24.75 -5 23 71 -9.6 14.8 0
21:26 1009 29.8 838 24.75 -4.9 23.1 71 -9.4 15.1 0
21:27 1009 29.8 838 24.75 -5 23.1 74 -8.9 16 0
21:28 1009 29.8 838 24.75 -5 23 75 -8.8 16.1 0
21:29 1009 29.8 838 24.75 -5 22.9 75 -8.9 16 0
21:30 1009 29.8 838 24.75 -5.1 22.9 75 -8.9 16.1 0
21:31 1009 29.8 838 24.75 -5.1 22.9 76 -8.7 16.3 0
21:32 1009 29.8 838 24.75 -5.1 22.8 76 -8.6 16.5 0
21:33 1009 29.8 838 24.75 -5.1 22.8 77 -8.5 16.6 0
21:34 1009 29.8 838 24.75 -5.2 22.7 78 -8.5 16.7 0
21:35 1009 29.8 838 24.75 -5.2 22.7 77 -8.6 16.5 0
21:36 1009 29.8 838 24.75 -5.2 22.6 78 -8.5 16.8 0
21:37 1009 29.8 838 24.75 -5.2 22.6 78 -8.6 16.6 0
21:38 1009 29.8 838 24.75 -5.3 22.5 79 -8.4 16.9 0
21:39 1009 29.8 838 24.75 -5.3 22.5 79 -8.4 17 0
21:40 1009 29.8 838 24.75 -5.3 22.4 80 -8.3 17.1 0
21:41 1009 29.8 838 24.75 -5.4 22.3 81 -8.2 17.2 0
21:42 1009 29.8 838 24.75 -5.4 22.3 81 -8.1 17.4 0
21:43 1009 29.8 838 24.75 -5.5 22.1 82 -8.1 17.5 0
21:44 1009 29.8 838 24.75 -5.5 22.1 83 -8 17.6 0
21:45 1009 29.8 838 24.75 -5.5 22.1 83 -7.9 17.7 0
21:46 1009 29.8 838 24.75 -5.6 22 83 -8 17.6 0
21:47 1009 29.8 838 24.75 -5.6 21.9 84 -8 17.7 0
21:48 1009 29.8 838 24.75 -5.6 21.9 85 -7.8 17.9 0
21:49 1009 29.8 838 24.75 -5.7 21.8 85 -7.8 18 0
21:50 1009 29.8 838 24.75 -5.7 21.7 86 -7.7 18.1 0
21:51 1009 29.8 838 24.75 -5.8 21.6 86 -7.7 18.1 0
21:52 1009 29.8 838 24.75 -5.8 21.6 87 -7.7 18.2 0
21:53 1009 29.8 838 24.75 -5.8 21.5 87 -7.7 18.1 0
21:54 1009 29.8 838 24.75 -5.9 21.5 87 -7.7 18.1 0
21:55 1008 29.77 838 24.75 -5.9 21.4 87 -7.7 18.1 0
21:56 1008 29.77 838 24.75 -5.9 21.4 88 -7.7 18.2 0
21:57 1008 29.77 838 24.75 -5.9 21.3 88 -7.6 18.4 0
21:58 1008 29.77 838 24.75 -5.9 21.4 88 -7.6 18.4 0
21:59 1009 29.8 838 24.75 -5.9 21.4 88 -7.6 18.3 0
22:00 1008 29.77 838 24.75 -5.8 21.6 87 -7.6 18.4 0
22:01 1009 29.8 838 24.75 -5.8 21.6 87 -7.6 18.4 0
22:02 1009 29.8 838 24.75 -5.8 21.5 88 -7.5 18.4 0
22:03 1009 29.8 838 24.75 -5.8 21.5 88 -7.5 18.4 0
22:04 1008 29.77 838 24.75 -5.9 21.4 88 -7.5 18.5 0
22:05 1009 29.8 838 24.75 -5.9 21.3 88 -7.6 18.4 0
22:06 1009 29.8 838 24.75 -6 21.2 89 -7.6 18.4 0
22:07 1009 29.8 838 24.75 -6 21.2 89 -7.6 18.4 0
22:08 1009 29.8 838 24.75 -6.1 21.1 89 -7.5 18.4 0
22:09 1009 29.8 838 24.75 -6.1 21 90 -7.6 18.4 0
22:10 1009 29.8 838 24.75 -6.1 21 89 -7.6 18.3 0
22:11 1009 29.8 838 24.75 -6.1 21 89 -7.6 18.3 0
22:12 1009 29.8 838 24.75 -6.1 20.9 90 -7.6 18.4 0
22:13 1009 29.8 838 24.75 -6.2 20.9 90 -7.6 18.3 0
22:14 1009 29.8 838 24.75 -6.1 21 90 -7.5 18.4 0
22:15 1009 29.8 838 24.75 -6.1 21 90 -7.6 18.4 0
22:16 1009 29.8 838 24.75 -6.1 21 90 -7.5 18.4 0
22:17 1009 29.8 838 24.75 -6.1 21 89 -7.6 18.3 0
22:18 1009 29.8 838 24.75 -6.1 21 90 -7.6 18.4 0
22:19 1009 29.8 838 24.75 -6.1 20.9 90 -7.6 18.4 0
22:20 1009 29.8 838 24.75 -6.1 20.9 90 -7.6 18.4 0
22:21 1009 29.8 838 24.75 -6.1 21 90 -7.5 18.5 0
22:22 1009 29.8 838 24.75 -6.1 21 90 -7.5 18.4 0
22:23 1009 29.8 838 24.75 -6.1 21 90 -7.5 18.5 0
22:24 1009 29.8 838 24.75 -6.1 21 90 -7.5 18.5 0
22:25 1009 29.8 838 24.75 -6.1 21 90 -7.5 18.5 0
22:26 1009 29.8 838 24.75 -6.1 21.1 90 -7.4 18.6 0
22:27 1009 29.8 838 24.75 -6.1 21 90 -7.5 18.5 0
22:28 1009 29.8 838 24.75 -6.1 21.1 90 -7.5 18.5 0
22:29 1009 29.8 838 24.75 -6.1 21 90 -7.5 18.4 0
22:30 1009 29.8 838 24.75 -6.1 21 90 -7.5 18.4 0
22:31 1009 29.8 838 24.75 -6.2 20.9 90 -7.6 18.4 0
22:32 1009 29.8 838 24.75 -6.1 21 90 -7.5 18.5 0
22:33 1009 29.8 838 24.75 -6.1 21 90 -7.5 18.5 0
22:34 1009 29.8 838 24.75 -6.1 21 90 -7.5 18.5 0
22:35 1009 29.8 838 24.75 -6.1 21 90 -7.5 18.5 0
22:36 1009 29.8 838 24.75 -6.1 21 90 -7.5 18.5 0
22:37 1009 29.8 838 24.75 -6.1 20.9 90 -7.5 18.5 0
22:38 1009 29.8 838 24.75 -6.1 21 90 -7.5 18.6 0
22:39 1009 29.8 838 24.75 -6.1 21 90 -7.4 18.6 0
22:40 1009 29.8 838 24.75 -6.2 20.9 90 -7.5 18.5 0
22:41 1009 29.8 838 24.75 -6.2 20.9 90 -7.5 18.5 0
22:42 1009 29.8 838 24.75 -6.2 20.9 91 -7.5 18.6 0
22:43 1009 29.8 838 24.75 -6.2 20.8 91 -7.5 18.5 0
22:44 1009 29.8 838 24.75 -6.2 20.9 91 -7.5 18.5 0
22:45 1009 29.8 838 24.75 -6.2 20.8 91 -7.5 18.6 0
22:46 1009 29.8 838 24.75 -6.2 20.8 91 -7.4 18.6 0
22:47 1009 29.8 838 24.75 -6.2 20.9 91 -7.4 18.7 0
22:48 1009 29.8 838 24.75 -6.2 20.8 91 -7.4 18.6 0
22:49 1009 29.8 838 24.75 -6.2 20.8 91 -7.4 18.7 0
22:50 1009 29.8 838 24.75 -6.2 20.9 91 -7.4 18.7 0
22:51 1009 29.8 838 24.75 -6.2 20.9 91 -7.4 18.7 0
22:52 1009 29.8 838 24.75 -6.1 20.9 91 -7.4 18.7 0
22:53 1009 29.8 838 24.75 -6.1 21 91 -7.4 18.7 0
22:54 1009 29.8 838 24.75 -6.1 21 91 -7.4 18.8 0
22:55 1009 29.8 838 24.75 -6.1 21 91 -7.4 18.7 0
22:56 1009 29.8 838 24.75 -6.1 21.1 91 -7.3 18.9 0
22:57 1009 29.8 838 24.75 -6.1 21.1 91 -7.3 18.8 0
22:58 1009 29.8 838 24.75 -6 21.1 91 -7.3 18.9 0
22:59 1009 29.8 838 24.75 -6 21.1 91 -7.3 18.8 0
23:00 1009 29.8 838 24.75 -6 21.2 91 -7.3 18.9 0
23:01 1009 29.8 838 24.75 -5.9 21.3 91 -7.2 19 0
23:02 1009 29.8 838 24.75 -5.9 21.3 90 -7.3 18.9 0
23:03 1009 29.8 838 24.75 -5.9 21.4 90 -7.3 18.9 0
23:04 1009 29.8 838 24.75 -5.9 21.3 90 -7.3 18.9 0
23:05 1009 29.8 838 24.75 -6 21.3 91 -7.3 18.9 0
23:06 1009 29.8 838 24.75 -6 21.2 91 -7.3 18.9 0
23:07 1009 29.8 838 24.75 -6 21.2 91 -7.3 18.9 0
23:08 1009 29.8 838 24.75 -6 21.1 91 -7.3 18.9 0
23:09 1009 29.8 838 24.75 -6.1 21.1 91 -7.3 18.8 0
23:10 1009 29.8 838 24.75 -6.1 21 91 -7.4 18.7 0
23:11 1009 29.8 838 24.75 -6.1 21 91 -7.4 18.7 0
23:12 1009 29.8 838 24.75 -6.1 21 91 -7.3 18.8 0
23:13 1009 29.8 838 24.75 -6.1 20.9 91 -7.3 18.8 0
23:14 1009 29.8 838 24.75 -6.2 20.9 91 -7.4 18.8 0
23:15 1009 29.8 838 24.75 -6.2 20.9 92 -7.3 18.8 0
23:16 1009 29.8 838 24.75 -6.2 20.9 92 -7.3 18.8 0
23:17 1009 29.8 838 24.75 -6.2 20.8 92 -7.3 18.8 0
23:18 1009 29.8 838 24.75 -6.2 20.8 92 -7.4 18.7 0
23:19 1009 29.8 838 24.75 -6.3 20.7 92 -7.4 18.8 0
23:20 1009 29.8 838 24.75 -6.3 20.7 92 -7.4 18.8 0
23:21 1009 29.8 838 24.75 -6.2 20.8 92 -7.3 18.8 0
23:22 1009 29.8 838 24.75 -6.2 20.8 92 -7.3 18.8 0
23:23 1009 29.8 838 24.75 -6.2 20.8 92 -7.4 18.8 0
23:24 1009 29.8 838 24.75 -6.3 20.7 92 -7.4 18.7 0
23:25 1009 29.8 838 24.75 -6.3 20.7 92 -7.4 18.8 0
23:26 1009 29.8 838 24.75 -6.3 20.7 92 -7.4 18.7 0
23:27 1009 29.8 838 24.75 -6.3 20.7 92 -7.4 18.7 0
23:28 1009 29.8 838 24.75 -6.3 20.7 92 -7.3 18.8 0
23:29 1009 29.8 838 24.75 -6.3 20.7 92 -7.3 18.8 0
23:30 1009 29.8 838 24.75 -6.2 20.8 92 -7.3 18.9 0
23:31 1009 29.8 838 24.75 -6.2 20.8 92 -7.3 18.9 0
23:32 1009 29.8 838 24.75 -6.2 20.8 92 -7.3 18.9 0
23:33 1009 29.8 838 24.75 -6.2 20.8 92 -7.3 18.9 0
23:34 1009 29.8 838 24.75 -6.2 20.8 92 -7.3 18.9 0
23:35 1009 29.8 838 24.75 -6.3 20.7 93 -7.3 18.9 0
23:36 1009 29.8 838 24.75 -6.2 20.8 93 -7.2 19 0
23:37 1009 29.8 838 24.75 -6.2 20.8 93 -7.2 19 0
23:38 1009 29.8 838 24.75 -6.2 20.8 93 -7.2 19.1 0
23:39 1009 29.8 838 24.75 -6.2 20.9 93 -7.1 19.1 0
23:40 1009 29.8 838 24.75 -6.2 20.8 93 -7.1 19.1 0
23:41 1009 29.8 838 24.75 -6.2 20.8 93 -7.1 19.2 0
23:42 1009 29.8 838 24.75 -6.2 20.9 93 -7.1 19.2 0
23:43 1009 29.8 838 24.75 -6.2 20.8 93 -7.1 19.2 0
23:44 1009 29.8 838 24.75 -6.2 20.9 93 -7.1 19.3 0
23:45 1009 29.8 838 24.75 -6.2 20.8 94 -7.1 19.3 0
23:46 1009 29.8 838 24.75 -6.2 20.8 94 -7.1 19.2 0
23:47 1009 29.8 838 24.75 -6.2 20.8 94 -7.1 19.3 0
23:48 1009 29.8 838 24.75 -6.2 20.8 94 -7 19.3 0
23:49 1009 29.8 838 24.75 -6.2 20.8 94 -7.1 19.3 0
23:50 1009 29.8 838 24.75 -6.3 20.7 94 -7.1 19.2 0
23:51 1009 29.8 838 24.75 -6.3 20.7 94 -7.1 19.2 0
23:52 1009 29.8 838 24.75 -6.3 20.7 94 -7.1 19.2 0
23:53 1009 29.8 838 24.75 -6.3 20.7 94 -7.1 19.3 0
23:54 1009 29.8 838 24.75 -6.3 20.7 94 -7.1 19.3 0
23:55 1009 29.8 838 24.75 -6.3 20.6 94 -7.1 19.3 0
23:56 1009 29.8 838 24.75 -6.3 20.7 94 -7.1 19.3 0
23:57 1009 29.8 838 24.75 -6.3 20.7 95 -7 19.3 0
23:58 1009 29.8 838 24.75 -6.3 20.7 95 -7 19.3 0
23:59 1009 29.8 838 24.75 -6.3 20.7 95 -7 19.4 0
24:00 1009 29.8 838 24.75 -6.3 20.7 95 -7 19.3 0